20/4/21
Time         Wind Dir  Wind Gust   Humidity       Temp   Tot Rain Wind Chill Heat Index  Dew Point   Barom SL Temp Out H Temp Out L  DailyRain   HourRain   24HrRain   RainRate   Wind Run   Deg Heat   Deg Cool  MonthRain
                          km/hr          %         C         mm         C         C         C         mb         C         C         mm         mm         mm      mm/hr         km         C         C         mm
0:00              242        0.0         79       14.7      187.8       14.7       17.0       11.1     1015.3       14.7       14.7        0.0        0.0        0.0       0.00       89.7       1.38       0.50       10.8
0:02              242        0.0         79       14.7      187.8       14.7       16.9       11.1     1015.3       14.7       14.7        0.0        0.0        0.0       0.00        0.2       0.03       0.00       10.8
0:04              242        0.0         79       14.6      187.8       14.6       16.9       11.0     1015.3       14.7       14.6        0.0        0.0        0.0       0.00        0.5       0.03       0.00       10.8
0:06              242        0.0         80       14.6      187.8       14.6       17.0       11.2     1015.3       14.7       14.6        0.0        0.0        0.0       0.00        0.7       0.03       0.00       10.8
0:08              242        0.0         79       14.6      187.8       14.6       16.8       11.0     1015.3       14.7       14.6        0.0        0.0        0.0       0.00        0.9       0.03       0.00       10.8
0:10              242        0.0         80       14.5      187.8       14.5       16.8       11.1     1015.3       14.7       14.5        0.0        0.0        0.0       0.00        1.3       0.03       0.00       10.8
0:12              242        0.0         80       14.4      187.8       14.4       16.8       11.0     1015.3       14.7       14.4        0.0        0.0        0.0       0.00        1.5       0.03       0.00       10.8
0:14              242        0.0         80       14.4      187.8       14.4       16.7       11.0     1015.3       14.7       14.4        0.0        0.0        0.0       0.00        1.7       0.03       0.00       10.8
0:15              242        0.0         80       14.3      187.8       14.3       16.7       10.9     1015.3       14.7       14.3        0.0        0.0        0.0       0.00        1.9       0.07       0.00       10.8
0:18              242        0.0         80       14.3      187.8       14.3       16.7       10.9     1015.3       14.7       14.3        0.0        0.0        0.0       0.00        2.1       0.07       0.00       10.8
0:20              242        0.0         80       14.3      187.8       14.3       16.6       10.9     1015.2       14.7       14.3        0.0        0.0        0.0       0.00        2.3       0.07       0.00       10.8
0:22              242        0.0         80       14.3      187.8       14.3       16.6       10.9     1015.2       14.7       14.2        0.0        0.0        0.0       0.00        2.5       0.07       0.00       10.8
0:24              242        0.0         81       14.2      187.8       14.2       16.6       11.0     1015.3       14.7       14.2        0.0        0.0        0.0       0.00        2.6       0.07       0.00       10.8
0:26              242        0.0         81       14.2      187.8       14.2       16.6       11.0     1015.3       14.7       14.2        0.0        0.0        0.0       0.00        2.7       0.07       0.00       10.8
0:28              242        0.0         81       14.2      187.8       14.2       16.6       11.0     1015.3       14.7       14.2        0.0        0.0        0.0       0.00        2.8       0.07       0.00       10.8
0:29              242        0.0         81       14.2      187.8       14.2       16.6       11.0     1015.2       14.7       14.2        0.0        0.0        0.0       0.00        2.9       0.07       0.00       10.8
0:32              242        0.0         81       14.2      187.8       14.2       16.6       11.0     1015.2       14.7       14.2        0.0        0.0        0.0       0.00        3.0       0.11       0.00       10.8
0:34              242        0.0         81       14.2      187.8       14.2       16.6       11.0     1015.2       14.7       14.2        0.0        0.0        0.0       0.00        3.3       0.11       0.00       10.8
0:36              242        0.0         81       14.1      187.8       14.1       16.5       10.9     1015.1       14.7       14.1        0.0        0.0        0.0       0.00        3.6       0.11       0.00       10.8
0:38              242        0.0         81       14.1      187.8       14.1       16.5       10.9     1015.1       14.7       14.1        0.0        0.0        0.0       0.00        3.8       0.11       0.00       10.8
0:40              242        0.0         82       14.2      187.8       14.2       16.7       11.1     1015.1       14.7       14.1        0.0        0.0        0.0       0.00        3.9       0.11       0.00       10.8
0:41              242        0.0         82       14.2      187.8       14.2       16.7       11.1     1015.0       14.7       14.1        0.0        0.0        0.0       0.00        4.0       0.11       0.00       10.8
0:44              242        0.0         82       14.2      187.8       14.2       16.7       11.2     1015.0       14.7       14.1        0.0        0.0        0.0       0.00        4.1       0.11       0.00       10.8
0:46              242        0.0         82       14.2      187.8       14.2       16.7       11.2     1014.9       14.7       14.1        0.0        0.0        0.0       0.00        4.2       0.15       0.00       10.8
0:47              242        0.0         82       14.2      187.8       14.2       16.7       11.2     1014.9       14.7       14.1        0.0        0.0        0.0       0.00        4.2       0.15       0.00       10.8
0:50              242        0.0         82       14.2      187.8       14.2       16.7       11.2     1014.8       14.7       14.1        0.0        0.0        0.0       0.00        4.3       0.15       0.00       10.8
0:52              242        0.0         82       14.2      187.8       14.2       16.7       11.2     1014.8       14.7       14.1        0.0        0.0        0.0       0.00        4.3       0.15       0.00       10.8
0:53              242        0.0         82       14.3      187.8       14.3       16.8       11.3     1014.8       14.7       14.1        0.0        0.0        0.0       0.00        4.3       0.15       0.00       10.8
0:56              242        0.0         82       14.3      187.8       14.3       16.8       11.3     1014.8       14.7       14.1        0.0        0.0        0.0       0.00        4.3       0.15       0.00       10.8
0:57              242        0.0         81       14.2      187.8       14.2       16.6       11.0     1014.7       14.7       14.1        0.0        0.0        0.0       0.00        4.3       0.15       0.00       10.8
1:00              242        0.0         81       14.2      187.8       14.2       16.6       11.0     1014.7       14.7       14.1        0.0        0.0        0.0       0.00        4.3       0.15       0.00       10.8
1:02              242        0.0         81       14.3      187.8       14.3       16.7       11.1     1014.7       14.7       14.1        0.0        0.0        0.0       0.00        4.3       0.19       0.00       10.8
1:04              242        0.0         81       14.3      187.8       14.3       16.7       11.1     1014.7       14.7       14.1        0.0        0.0        0.0       0.00        4.4       0.19       0.00       10.8
1:05              242        0.0         81       14.3      187.8       14.3       16.7       11.1     1014.6       14.7       14.1        0.0        0.0        0.0       0.00        4.4       0.19       0.00       10.8
1:08              242        0.0         81       14.3      187.8       14.3       16.7       11.1     1014.7       14.7       14.1        0.0        0.0        0.0       0.00        4.4       0.19       0.00       10.8
1:10              242        0.0         81       14.2      187.8       14.2       16.6       11.0     1014.6       14.7       14.1        0.0        0.0        0.0       0.00        4.4       0.19       0.00       10.8
1:12              242        0.0         81       14.2      187.8       14.2       16.6       11.0     1014.7       14.7       14.1        0.0        0.0        0.0       0.00        4.4       0.19       0.00       10.8
1:13              242        0.0         81       14.2      187.8       14.2       16.6       11.0     1014.7       14.7       14.1        0.0        0.0        0.0       0.00        4.4       0.19       0.00       10.8
1:16              242        0.0         81       14.2      187.8       14.2       16.6       11.0     1014.8       14.7       14.1        0.0        0.0        0.0       0.00        4.4       0.23       0.00       10.8
1:18              242        0.0         81       14.2      187.8       14.2       16.6       11.0     1014.7       14.7       14.1        0.0        0.0        0.0       0.00        4.4       0.23       0.00       10.8
1:19              242        0.0         81       14.2      187.8       14.2       16.6       11.0     1014.7       14.7       14.1        0.0        0.0        0.0       0.00        4.4       0.23       0.00       10.8
1:22              242        0.0         82       14.2      187.8       14.2       16.7       11.1     1014.7       14.7       14.1        0.0        0.0        0.0       0.00        4.4       0.23       0.00       10.8
1:23              242        0.0         82       14.2      187.8       14.2       16.7       11.1     1014.7       14.7       14.1        0.0        0.0        0.0       0.00        4.4       0.23       0.00       10.8
1:26              242        0.0         82       14.1      187.8       14.1       16.6       11.1     1014.7       14.7       14.1        0.0        0.0        0.0       0.00        4.4       0.23       0.00       10.8
1:28              242        0.0         82       14.1      187.8       14.1       16.6       11.1     1014.7       14.7       14.1        0.0        0.0        0.0       0.00        4.4       0.23       0.00       10.8
1:30              242        0.0         82       14.1      187.8       14.1       16.6       11.1     1014.7       14.7       14.1        0.0        0.0        0.0       0.00        4.4       0.23       0.00       10.8
1:32              242        0.0         82       14.1      187.8       14.1       16.6       11.1     1014.6       14.7       14.1        0.0        0.0        0.0       0.00        4.4       0.27       0.00       10.8
1:34              242        0.0         82       14.1      187.8       14.1       16.6       11.0     1014.6       14.7       14.1        0.0        0.0        0.0       0.00        4.4       0.27       0.00       10.8
1:36              242        0.0         82       14.1      187.8       14.1       16.6       11.0     1014.5       14.7       14.1        0.0        0.0        0.0       0.00        4.4       0.27       0.00       10.8
1:38              242        0.0         82       14.1      187.8       14.1       16.6       11.0     1014.5       14.7       14.1        0.0        0.0        0.0       0.00        4.5       0.27       0.00       10.8
1:40              242        0.0         82       14.0      187.8       14.0       16.5       11.0     1014.5       14.7       14.0        0.0        0.0        0.0       0.00        4.5       0.27       0.00       10.8
1:42              242        0.0         81       14.0      187.8       14.0       16.4       10.8     1014.5       14.7       14.0        0.0        0.0        0.0       0.00        4.6       0.27       0.00       10.8
1:44              242        0.0         81       13.9      187.8       13.9       16.4       10.7     1014.5       14.7       13.9        0.0        0.0        0.0       0.00        4.6       0.27       0.00       10.8
1:46              242        0.0         80       13.9      187.8       13.9       16.2       10.5     1014.3       14.7       13.9        0.0        0.0        0.0       0.00        4.6       0.31       0.00       10.8
1:48              242        0.0         79       13.8      187.8       13.8       16.1       10.3     1014.4       14.7       13.8        0.0        0.0        0.0       0.00        4.6       0.31       0.00       10.8
1:50              242        0.0         79       13.8      187.8       13.8       16.1       10.3     1014.3       14.7       13.8        0.0        0.0        0.0       0.00        4.6       0.31       0.00       10.8
1:52              242        0.0         78       13.8      187.8       13.8       16.0       10.1     1014.3       14.7       13.8        0.0        0.0        0.0       0.00        4.6       0.31       0.00       10.8
1:53              242        0.0         78       13.9      187.8       13.9       16.1       10.1     1014.3       14.7       13.8        0.0        0.0        0.0       0.00        4.6       0.31       0.00       10.8
1:56              242        0.0         77       13.9      187.8       13.9       16.0        9.9     1014.3       14.7       13.8        0.0        0.0        0.0       0.00        4.6       0.31       0.00       10.8
1:58              242        0.0         76       13.9      187.8       13.9       15.9        9.7     1014.2       14.7       13.8        0.0        0.0        0.0       0.00        4.7       0.31       0.00       10.8
2:00              242        0.0         76       13.9      187.8       13.9       16.0        9.8     1014.2       14.7       13.8        0.0        0.0        0.0       0.00        4.8       0.31       0.00       10.8
2:02              242        0.0         76       13.9      187.8       13.9       16.0        9.8     1014.3       14.7       13.8        0.0        0.0        0.0       0.00        4.8       0.36       0.00       10.8
2:04              242        0.0         75       14.0      187.8       14.0       16.0        9.6     1014.3       14.7       13.8        0.0        0.0        0.0       0.00        4.8       0.36       0.00       10.8
2:06              242        0.0         75       14.0      187.8       14.0       16.0        9.6     1014.3       14.7       13.8        0.0        0.0        0.0       0.00        4.9       0.36       0.00       10.8
2:08              242        0.0         75       14.0      187.8       14.0       16.0        9.6     1014.2       14.7       13.8        0.0        0.0        0.0       0.00        5.0       0.36       0.00       10.8
2:10              242        0.0         75       14.0      187.8       14.0       16.0        9.6     1014.2       14.7       13.8        0.0        0.0        0.0       0.00        5.0       0.36       0.00       10.8
2:12              242        0.0         75       14.0      187.8       14.0       16.0        9.6     1014.2       14.7       13.8        0.0        0.0        0.0       0.00        5.0       0.36       0.00       10.8
2:14              242        0.0         75       14.0      187.8       14.0       16.0        9.6     1014.2       14.7       13.8        0.0        0.0        0.0       0.00        5.0       0.36       0.00       10.8
2:16              242        0.0         75       14.0      187.8       14.0       16.0        9.6     1014.2       14.7       13.8        0.0        0.0        0.0       0.00        5.0       0.40       0.00       10.8
2:18              242        0.0         75       13.9      187.8       13.9       15.9        9.6     1014.1       14.7       13.8        0.0        0.0        0.0       0.00        5.0       0.40       0.00       10.8
2:20              242        0.0         75       13.9      187.8       13.9       15.9        9.6     1014.2       14.7       13.8        0.0        0.0        0.0       0.00        5.0       0.40       0.00       10.8
2:22              242        0.0         74       13.9      187.8       13.9       15.9        9.4     1014.2       14.7       13.8        0.0        0.0        0.0       0.00        5.1       0.40       0.00       10.8
2:24              242        0.0         74       13.9      187.8       13.9       15.9        9.4     1014.1       14.7       13.8        0.0        0.0        0.0       0.00        5.1       0.40       0.00       10.8
2:26              242        0.0         73       13.9      187.8       13.9       15.8        9.2     1014.1       14.7       13.8        0.0        0.0        0.0       0.00        5.2       0.40       0.00       10.8
2:28              242        0.0         73       14.0      187.8       14.0       15.8        9.2     1014.1       14.7       13.8        0.0        0.0        0.0       0.00        5.2       0.40       0.00       10.8
2:30              242        0.0         73       14.0      187.8       14.0       15.8        9.2     1014.2       14.7       13.8        0.0        0.0        0.0       0.00        5.4       0.40       0.00       10.8
2:32              242        0.0         72       14.0      187.8       14.0       15.8        9.0     1014.1       14.7       13.8        0.0        0.0        0.0       0.00        5.5       0.44       0.00       10.8
2:34              242        0.0         72       14.1      187.8       14.1       15.8        9.1     1014.2       14.7       13.8        0.0        0.0        0.0       0.00        5.6       0.44       0.00       10.8
2:36              242        0.0         72       14.1      187.8       14.1       15.8        9.1     1014.1       14.7       13.8        0.0        0.0        0.0       0.00        5.6       0.44       0.00       10.8
2:38              242        0.0         72       14.1      187.8       14.1       15.8        9.1     1014.2       14.7       13.8        0.0        0.0        0.0       0.00        5.6       0.44       0.00       10.8
2:40              242        0.0         73       14.1      187.8       14.1       15.9        9.3     1014.2       14.7       13.8        0.0        0.0        0.0       0.00        5.6       0.44       0.00       10.8
2:42              242        0.0         73       14.1      187.8       14.1       15.9        9.3     1014.2       14.7       13.8        0.0        0.0        0.0       0.00        5.6       0.44       0.00       10.8
2:44              242        0.0         74       14.1      187.8       14.1       16.0        9.5     1014.2       14.7       13.8        0.0        0.0        0.0       0.00        5.7       0.44       0.00       10.8
2:46              242        0.0         74       14.1      187.8       14.1       16.0        9.5     1014.4       14.7       13.8        0.0        0.0        0.0       0.00        5.7       0.48       0.00       10.8
2:48              242        0.0         75       14.1      187.8       14.1       16.0        9.7     1014.3       14.7       13.8        0.0        0.0        0.0       0.00        5.7       0.48       0.00       10.8
2:50              242        0.0         76       14.1      187.8       14.1       16.1        9.9     1014.3       14.7       13.8        0.0        0.0        0.0       0.00        5.7       0.48       0.00       10.8
2:52              242        0.0         76       14.1      187.8       14.1       16.1        9.9     1014.1       14.7       13.8        0.0        0.0        0.0       0.00        5.9       0.48       0.00       10.8
2:54              242        0.0         77       14.1      187.8       14.1       16.2       10.1     1014.2       14.7       13.8        0.0        0.0        0.0       0.00        5.9       0.48       0.00       10.8
2:56              242        0.0         77       14.1      187.8       14.1       16.2       10.1     1014.3       14.7       13.8        0.0        0.0        0.0       0.00        6.0       0.48       0.00       10.8
2:58              242        0.0         78       14.0      187.8       14.0       16.2       10.2     1014.2       14.7       13.8        0.0        0.0        0.0       0.00        6.0       0.48       0.00       10.8
3:00              242        0.0         78       14.0      187.8       14.0       16.2       10.2     1014.2       14.7       13.8        0.0        0.0        0.0       0.00        6.0       0.48       0.00       10.8
3:02              242        0.0         79       13.9      187.8       13.9       16.2       10.4     1014.1       14.7       13.8        0.0        0.0        0.0       0.00        6.0       0.52       0.00       10.8
3:04              242        0.0         79       13.9      187.8       13.9       16.2       10.4     1014.1       14.7       13.8        0.0        0.0        0.0       0.00        6.0       0.52       0.00       10.8
3:06              242        0.0         79       13.9      187.8       13.9       16.2       10.3     1014.2       14.7       13.8        0.0        0.0        0.0       0.00        6.0       0.52       0.00       10.8
3:08              242        0.0         80       13.9      187.8       13.9       16.2       10.5     1014.2       14.7       13.8        0.0        0.0        0.0       0.00        6.0       0.52       0.00       10.8
3:10              242        0.0         80       13.8      187.8       13.8       16.2       10.4     1014.2       14.7       13.8        0.0        0.0        0.0       0.00        6.0       0.52       0.00       10.8
3:12              242        0.0         80       13.8      187.8       13.8       16.2       10.4     1014.2       14.7       13.8        0.0        0.0        0.0       0.00        6.0       0.52       0.00       10.8
3:14              242        0.0         80       13.8      187.8       13.8       16.1       10.4     1014.1       14.7       13.8        0.0        0.0        0.0       0.00        6.0       0.52       0.00       10.8
3:16              242        0.0         81       13.8      187.8       13.8       16.2       10.6     1014.1       14.7       13.8        0.0        0.0        0.0       0.00        6.1       0.57       0.00       10.8
3:18              242        0.0         81       13.8      187.8       13.8       16.2       10.6     1014.0       14.7       13.8        0.0        0.0        0.0       0.00        6.1       0.57       0.00       10.8
3:19              242        0.0         81       13.7      187.8       13.7       16.1       10.5     1014.0       14.7       13.7        0.0        0.0        0.0       0.00        6.1       0.57       0.00       10.8
3:22              242        0.0         80       13.7      187.8       13.7       16.0       10.3     1014.1       14.7       13.7        0.0        0.0        0.0       0.00        6.2       0.57       0.00       10.8
3:24              242        0.0         79       13.6      187.8       13.6       15.9       10.0     1014.1       14.7       13.6        0.0        0.0        0.0       0.00        6.2       0.57       0.00       10.8
3:26              242        0.0         78       13.6      187.8       13.6       15.8        9.8     1014.1       14.7       13.6        0.0        0.0        0.0       0.00        6.2       0.57       0.00       10.8
3:28              242        0.0         77       13.5      187.8       13.5       15.6        9.6     1014.1       14.7       13.5        0.0        0.0        0.0       0.00        6.3       0.57       0.00       10.8
3:30              242        0.0         76       13.4      187.8       13.4       15.5        9.3     1014.0       14.7       13.4        0.0        0.0        0.0       0.00        6.3       0.57       0.00       10.8
3:32              242        0.0         74       13.4      187.8       13.4       15.4        8.9     1014.0       14.7       13.4        0.0        0.0        0.0       0.00        6.4       0.61       0.00       10.8
3:34              242        0.0         74       13.5      187.8       13.5       15.4        9.0     1014.0       14.7       13.4        0.0        0.0        0.0       0.00        6.5       0.61       0.00       10.8
3:36              242        0.0         73       13.6      187.8       13.6       15.4        8.8     1014.0       14.7       13.4        0.0        0.0        0.0       0.00        6.5       0.61       0.00       10.8
3:38              242        0.0         72       13.6      187.8       13.6       15.4        8.7     1014.0       14.7       13.4        0.0        0.0        0.0       0.00        6.6       0.61       0.00       10.8
3:40              242        0.0         72       13.7      187.8       13.7       15.5        8.8     1014.0       14.7       13.4        0.0        0.0        0.0       0.00        6.6       0.61       0.00       10.8
3:42              242        0.0         71       13.8      187.8       13.8       15.5        8.6     1014.0       14.7       13.4        0.0        0.0        0.0       0.00        6.7       0.61       0.00       10.8
3:44              242        0.0         71       13.8      187.8       13.8       15.5        8.7     1014.1       14.7       13.4        0.0        0.0        0.0       0.00        6.8       0.61       0.00       10.8
3:46              242        0.0         70       13.9      187.8       13.9       15.5        8.5     1014.1       14.7       13.4        0.0        0.0        0.0       0.00        6.8       0.66       0.00       10.8
3:48              242        0.0         70       13.9      187.8       13.9       15.5        8.5     1014.1       14.7       13.4        0.0        0.0        0.0       0.00        6.9       0.66       0.00       10.8
3:50              242        0.0         69       13.9      187.8       13.9       15.5        8.4     1014.0       14.7       13.4        0.0        0.0        0.0       0.00        7.0       0.66       0.00       10.8
3:52              242        0.0         69       14.0      187.8       14.0       15.6        8.4     1014.1       14.7       13.4        0.0        0.0        0.0       0.00        7.1       0.66       0.00       10.8
3:54              242        0.0         70       14.0      187.8       14.0       15.6        8.6     1014.1       14.7       13.4        0.0        0.0        0.0       0.00        7.2       0.66       0.00       10.8
3:56              242        0.0         69       14.1      187.8       14.1       15.6        8.5     1014.0       14.7       13.4        0.0        0.0        0.0       0.00        7.3       0.66       0.00       10.8
3:58              242        0.0         69       14.1      187.8       14.1       15.6        8.5     1014.0       14.7       13.4        0.0        0.0        0.0       0.00        7.4       0.66       0.00       10.8
4:00              242        0.0         69       14.1      187.8       14.1       15.6        8.5     1014.0       14.7       13.4        0.0        0.0        0.0       0.00        7.5       0.66       0.00       10.8
4:02              242        0.0         69       14.1      187.8       14.1       15.6        8.5     1014.0       14.7       13.4        0.0        0.0        0.0       0.00        7.6       0.70       0.00       10.8
4:04              242        0.0         68       14.1      187.8       14.1       15.6        8.2     1014.0       14.7       13.4        0.0        0.0        0.0       0.00        7.7       0.70       0.00       10.8
4:06              242        0.0         68       14.1      187.8       14.1       15.6        8.2     1014.0       14.7       13.4        0.0        0.0        0.0       0.00        7.8       0.70       0.00       10.8
4:08              242        0.0         68       14.1      187.8       14.1       15.6        8.2     1014.0       14.7       13.4        0.0        0.0        0.0       0.00        7.9       0.70       0.00       10.8
4:10              242        0.0         68       14.1      187.8       14.1       15.6        8.2     1014.0       14.7       13.4        0.0        0.0        0.0       0.00        8.0       0.70       0.00       10.8
4:12              242        0.0         68       14.1      187.8       14.1       15.6        8.2     1014.0       14.7       13.4        0.0        0.0        0.0       0.00        8.1       0.70       0.00       10.8
4:14              242        0.0         68       14.1      187.8       14.1       15.6        8.2     1014.0       14.7       13.4        0.0        0.0        0.0       0.00        8.2       0.70       0.00       10.8
4:16              242        0.0         68       14.0      187.8       14.0       15.5        8.2     1014.0       14.7       13.4        0.0        0.0        0.0       0.00        8.3       0.74       0.00       10.8
4:18              242        0.0         68       14.0      187.8       14.0       15.5        8.2     1013.9       14.7       13.4        0.0        0.0        0.0       0.00        8.4       0.74       0.00       10.8
4:20              242        0.0         68       14.0      187.8       14.0       15.5        8.2     1014.0       14.7       13.4        0.0        0.0        0.0       0.00        8.5       0.74       0.00       10.8
4:22              242        0.0         68       14.0      187.8       14.0       15.5        8.2     1014.0       14.7       13.4        0.0        0.0        0.0       0.00        8.5       0.74       0.00       10.8
4:24              242        0.0         68       14.0      187.8       14.0       15.5        8.2     1013.9       14.7       13.4        0.0        0.0        0.0       0.00        8.6       0.74       0.00       10.8
4:26              242        0.0         68       13.9      187.8       13.9       15.5        8.1     1013.9       14.7       13.4        0.0        0.0        0.0       0.00        8.7       0.74       0.00       10.8
4:28              242        0.0         68       13.9      187.8       13.9       15.5        8.1     1013.9       14.7       13.4        0.0        0.0        0.0       0.00        8.8       0.74       0.00       10.8
4:30              242        0.0         68       13.9      187.8       13.9       15.4        8.1     1014.0       14.7       13.4        0.0        0.0        0.0       0.00        8.9       0.74       0.00       10.8
4:32              242        0.0         68       13.9      187.8       13.9       15.4        8.1     1013.9       14.7       13.4        0.0        0.0        0.0       0.00        9.0       0.78       0.00       10.8
4:34              242        0.0         68       13.9      187.8       13.9       15.4        8.1     1014.0       14.7       13.4        0.0        0.0        0.0       0.00        9.0       0.78       0.00       10.8
4:36              242        0.0         68       13.9      187.8       13.9       15.4        8.1     1014.0       14.7       13.4        0.0        0.0        0.0       0.00        9.1       0.78       0.00       10.8
4:38              242        0.0         68       13.8      187.8       13.8       15.3        8.0     1014.0       14.7       13.4        0.0        0.0        0.0       0.00        9.2       0.78       0.00       10.8
4:40              242        0.0         68       13.8      187.8       13.8       15.3        8.0     1014.0       14.7       13.4        0.0        0.0        0.0       0.00        9.3       0.78       0.00       10.8
4:42              242        0.0         68       13.8      187.8       13.8       15.3        8.0     1014.0       14.7       13.4        0.0        0.0        0.0       0.00        9.4       0.78       0.00       10.8
4:44              242        0.0         68       13.8      187.8       13.8       15.3        8.0     1013.9       14.7       13.4        0.0        0.0        0.0       0.00        9.5       0.78       0.00       10.8
4:46              242        0.0         68       13.8      187.8       13.8       15.3        8.0     1013.9       14.7       13.4        0.0        0.0        0.0       0.00        9.5       0.83       0.00       10.8
4:48              242        0.0         69       13.7      187.8       13.7       15.3        8.1     1013.9       14.7       13.4        0.0        0.0        0.0       0.00        9.6       0.83       0.00       10.8
4:50              242        0.0         69       13.7      187.8       13.7       15.3        8.1     1014.0       14.7       13.4        0.0        0.0        0.0       0.00        9.7       0.83       0.00       10.8
4:52              242        0.0         69       13.7      187.8       13.7       15.2        8.1     1013.9       14.7       13.4        0.0        0.0        0.0       0.00        9.7       0.83       0.00       10.8
4:54              242        0.0         69       13.6      187.8       13.6       15.2        8.0     1013.9       14.7       13.4        0.0        0.0        0.0       0.00        9.8       0.83       0.00       10.8
4:56              242        0.0         69       13.6      187.8       13.6       15.2        8.0     1013.9       14.7       13.4        0.0        0.0        0.0       0.00        9.9       0.83       0.00       10.8
4:58              242        0.0         69       13.6      187.8       13.6       15.2        8.0     1013.8       14.7       13.4        0.0        0.0        0.0       0.00       10.0       0.83       0.00       10.8
5:00              242        0.0         69       13.6      187.8       13.6       15.1        8.0     1014.0       14.7       13.4        0.0        0.0        0.0       0.00       10.1       0.83       0.00       10.8
5:02              242        0.0         69       13.5      187.8       13.5       15.1        7.9     1013.9       14.7       13.4        0.0        0.0        0.0       0.00       10.3       0.87       0.00       10.8
5:04              242        0.0         69       13.5      187.8       13.5       15.1        7.9     1013.9       14.7       13.4        0.0        0.0        0.0       0.00       10.4       0.87       0.00       10.8
5:06              242        0.0         69       13.5      187.8       13.5       15.1        7.9     1013.9       14.7       13.4        0.0        0.0        0.0       0.00       10.4       0.87       0.00       10.8
5:08              242        0.0         69       13.5      187.8       13.5       15.1        7.9     1013.9       14.7       13.4        0.0        0.0        0.0       0.00       10.5       0.87       0.00       10.8
5:10              242        0.0         69       13.4      187.8       13.4       15.0        7.9     1014.0       14.7       13.4        0.0        0.0        0.0       0.00       10.6       0.87       0.00       10.8
5:12              242        0.0         69       13.4      187.8       13.4       15.0        7.9     1013.9       14.7       13.4        0.0        0.0        0.0       0.00       10.7       0.87       0.00       10.8
5:14              242        0.0         69       13.4      187.8       13.4       15.0        7.9     1014.0       14.7       13.4        0.0        0.0        0.0       0.00       10.8       0.87       0.00       10.8
5:16              242        0.0         70       13.4      187.8       13.4       15.0        8.0     1014.1       14.7       13.4        0.0        0.0        0.0       0.00       10.8       0.92       0.00       10.8
5:18              242        0.0         70       13.4      187.8       13.4       15.0        8.0     1014.0       14.7       13.4        0.0        0.0        0.0       0.00       10.9       0.92       0.00       10.8
5:20              242        0.0         70       13.4      187.8       13.4       15.0        8.0     1014.1       14.7       13.4        0.0        0.0        0.0       0.00       10.9       0.92       0.00       10.8
5:22              242        0.0         70       13.3      187.8       13.3       15.0        8.0     1014.0       14.7       13.3        0.0        0.0        0.0       0.00       11.0       0.92       0.00       10.8
5:24              242        0.0         70       13.3      187.8       13.3       15.0        8.0     1014.0       14.7       13.3        0.0        0.0        0.0       0.00       11.0       0.92       0.00       10.8
5:26              242        0.0         70       13.3      187.8       13.3       14.9        7.9     1014.0       14.7       13.3        0.0        0.0        0.0       0.00       11.1       0.92       0.00       10.8
5:28              242        0.0         70       13.3      187.8       13.3       14.9        7.9     1014.0       14.7       13.3        0.0        0.0        0.0       0.00       11.1       0.92       0.00       10.8
5:30              242        0.0         70       13.3      187.8       13.3       14.9        7.9     1014.0       14.7       13.2        0.0        0.0        0.0       0.00       11.2       0.92       0.00       10.8
5:32              242        0.0         70       13.2      187.8       13.2       14.9        7.9     1014.0       14.7       13.2        0.0        0.0        0.0       0.00       11.3       0.97       0.00       10.8
5:34              242        0.0         70       13.2      187.8       13.2       14.9        7.9     1014.0       14.7       13.2        0.0        0.0        0.0       0.00       11.3       0.97       0.00       10.8
5:36              242        0.0         70       13.2      187.8       13.2       14.9        7.9     1014.0       14.7       13.2        0.0        0.0        0.0       0.00       11.3       0.97       0.00       10.8
5:38              242        0.0         70       13.2      187.8       13.2       14.9        7.9     1014.0       14.7       13.2        0.0        0.0        0.0       0.00       11.4       0.97       0.00       10.8
5:40              242        0.0         70       13.2      187.8       13.2       14.9        7.9     1014.0       14.7       13.2        0.0        0.0        0.0       0.00       11.4       0.97       0.00       10.8
5:42              242        0.0         70       13.2      187.8       13.2       14.8        7.8     1014.2       14.7       13.2        0.0        0.0        0.0       0.00       11.5       0.97       0.00       10.8
5:44              242        0.0         71       13.2      187.8       13.2       14.9        8.0     1014.0       14.7       13.2        0.0        0.0        0.0       0.00       11.5       0.97       0.00       10.8
5:46              242        0.0         71       13.2      187.8       13.2       14.9        8.0     1014.0       14.7       13.2        0.0        0.0        0.0       0.00       11.5       1.02       0.00       10.8
5:48              242        0.0         71       13.2      187.8       13.2       14.9        8.0     1014.1       14.7       13.2        0.0        0.0        0.0       0.00       11.6       1.02       0.00       10.8
5:50              242        0.0         71       13.2      187.8       13.2       14.9        8.0     1014.1       14.7       13.2        0.0        0.0        0.0       0.00       11.7       1.02       0.00       10.8
5:52              242        0.0         71       13.2      187.8       13.2       14.9        8.0     1014.1       14.7       13.2        0.0        0.0        0.0       0.00       11.8       1.02       0.00       10.8
5:54              242        0.0         71       13.2      187.8       13.2       14.9        8.0     1014.2       14.7       13.2        0.0        0.0        0.0       0.00       11.9       1.02       0.00       10.8
5:56              242        0.0         71       13.2      187.8       13.2       14.9        8.0     1014.2       14.7       13.2        0.0        0.0        0.0       0.00       11.9       1.02       0.00       10.8
5:58              242        0.0         71       13.2      187.8       13.2       14.9        8.0     1014.2       14.7       13.2        0.0        0.0        0.0       0.00       11.9       1.02       0.00       10.8
6:00              242        0.0         71       13.2      187.8       13.2       14.9        8.0     1014.2       14.7       13.2        0.0        0.0        0.0       0.00       12.0       1.02       0.00       10.8
6:02              242        0.0         71       13.2      187.8       13.2       14.9        8.0     1014.2       14.7       13.2        0.0        0.0        0.0       0.00       12.1       1.07       0.00       10.8
6:04              242        0.0         71       13.2      187.8       13.2       14.9        8.0     1014.2       14.7       13.2        0.0        0.0        0.0       0.00       12.1       1.07       0.00       10.8
6:06              242        0.0         71       13.2      187.8       13.2       14.9        8.0     1014.2       14.7       13.2        0.0        0.0        0.0       0.00       12.1       1.07       0.00       10.8
6:08              242        0.0         71       13.2      187.8       13.2       14.9        8.1     1014.2       14.7       13.2        0.0        0.0        0.0       0.00       12.1       1.07       0.00       10.8
6:10              242        0.0         71       13.2      187.8       13.2       14.9        8.1     1014.2       14.7       13.2        0.0        0.0        0.0       0.00       12.1       1.07       0.00       10.8
6:12              242        0.0         71       13.2      187.8       13.2       14.9        8.1     1014.3       14.7       13.2        0.0        0.0        0.0       0.00       12.1       1.07       0.00       10.8
6:14              242        0.0         71       13.2      187.8       13.2       14.9        8.1     1014.3       14.7       13.2        0.0        0.0        0.0       0.00       12.1       1.07       0.00       10.8
6:16              242        0.0         71       13.2      187.8       13.2       14.9        8.1     1014.3       14.7       13.2        0.0        0.0        0.0       0.00       12.1       1.12       0.00       10.8
6:18              242        0.0         71       13.3      187.8       13.3       15.0        8.1     1014.3       14.7       13.2        0.0        0.0        0.0       0.00       12.1       1.12       0.00       10.8
6:20              242        0.0         71       13.3      187.8       13.3       15.0        8.1     1014.3       14.7       13.2        0.0        0.0        0.0       0.00       12.2       1.12       0.00       10.8
6:22              242        0.0         71       13.3      187.8       13.3       15.0        8.2     1014.3       14.7       13.2        0.0        0.0        0.0       0.00       12.2       1.12       0.00       10.8
6:24              242        0.0         71       13.3      187.8       13.3       15.0        8.2     1014.3       14.7       13.2        0.0        0.0        0.0       0.00       12.2       1.12       0.00       10.8
6:26              242        0.0         71       13.4      187.8       13.4       15.1        8.2     1014.3       14.7       13.2        0.0        0.0        0.0       0.00       12.2       1.12       0.00       10.8
6:28              242        0.0         71       13.4      187.8       13.4       15.1        8.2     1014.4       14.7       13.2        0.0        0.0        0.0       0.00       12.2       1.12       0.00       10.8
6:29              242        0.0         71       13.4      187.8       13.4       15.2        8.3     1014.4       14.7       13.2        0.0        0.0        0.0       0.00       12.3       1.12       0.00       10.8
6:32              242        0.0         71       13.4      187.8       13.4       15.2        8.3     1014.4       14.7       13.2        0.0        0.0        0.0       0.00       12.3       1.17       0.00       10.8
6:34              242        0.0         71       13.4      187.8       13.4       15.2        8.3     1014.4       14.7       13.2        0.0        0.0        0.0       0.00       12.4       1.17       0.00       10.8
6:36              242        0.0         71       13.4      187.8       13.4       15.2        8.3     1014.4       14.7       13.2        0.0        0.0        0.0       0.00       12.4       1.17       0.00       10.8
6:38              242        0.0         71       13.4      187.8       13.4       15.2        8.3     1014.4       14.7       13.2        0.0        0.0        0.0       0.00       12.5       1.17       0.00       10.8
6:40              242        0.0         71       13.4      187.8       13.4       15.2        8.3     1014.4       14.7       13.2        0.0        0.0        0.0       0.00       12.6       1.17       0.00       10.8
6:42              242        0.0         71       13.4      187.8       13.4       15.2        8.3     1014.4       14.7       13.2        0.0        0.0        0.0       0.00       12.6       1.17       0.00       10.8
6:44              242        0.0         71       13.4      187.8       13.4       15.2        8.3     1014.4       14.7       13.2        0.0        0.0        0.0       0.00       12.7       1.17       0.00       10.8
6:46              242        0.0         71       13.4      187.8       13.4       15.2        8.3     1014.5       14.7       13.2        0.0        0.0        0.0       0.00       12.7       1.21       0.00       10.8
6:48              242        0.0         71       13.4      187.8       13.4       15.2        8.3     1014.4       14.7       13.2        0.0        0.0        0.0       0.00       12.8       1.21       0.00       10.8
6:50              242        0.0         71       13.4      187.8       13.4       15.2        8.3     1014.4       14.7       13.2        0.0        0.0        0.0       0.00       12.8       1.21       0.00       10.8
6:52              242        0.0         71       13.4      187.8       13.4       15.2        8.3     1014.4       14.7       13.2        0.0        0.0        0.0       0.00       12.9       1.21       0.00       10.8
6:54              242        0.0         71       13.4      187.8       13.4       15.2        8.3     1014.4       14.7       13.2        0.0        0.0        0.0       0.00       12.9       1.21       0.00       10.8
6:56              242        0.0         71       13.4      187.8       13.4       15.2        8.3     1014.4       14.7       13.2        0.0        0.0        0.0       0.00       13.0       1.21       0.00       10.8
6:58              242        0.0         71       13.4      187.8       13.4       15.2        8.3     1014.4       14.7       13.2        0.0        0.0        0.0       0.00       13.0       1.21       0.00       10.8
7:00              242        0.0         71       13.4      187.8       13.4       15.2        8.3     1014.4       14.7       13.2        0.0        0.0        0.0       0.00       13.1       1.21       0.00       10.8
7:02              242        0.0         71       13.4      187.8       13.4       15.2        8.3     1014.5       14.7       13.2        0.0        0.0        0.0       0.00       13.1       1.26       0.00       10.8
7:04              242        0.0         71       13.4      187.8       13.4       15.2        8.3     1014.5       14.7       13.2        0.0        0.0        0.0       0.00       13.2       1.26       0.00       10.8
7:06              242        0.0         71       13.4      187.8       13.4       15.2        8.3     1014.6       14.7       13.2        0.0        0.0        0.0       0.00       13.3       1.26       0.00       10.8
7:08              242        0.0         71       13.4      187.8       13.4       15.2        8.3     1014.6       14.7       13.2        0.0        0.0        0.0       0.00       13.3       1.26       0.00       10.8
7:10              242        0.0         71       13.4      187.8       13.4       15.2        8.3     1014.6       14.7       13.2        0.0        0.0        0.0       0.00       13.4       1.26       0.00       10.8
7:12              242        0.0         71       13.4      187.8       13.4       15.2        8.3     1014.6       14.7       13.2        0.0        0.0        0.0       0.00       13.4       1.26       0.00       10.8
7:14              242        0.0         71       13.4      187.8       13.4       15.2        8.3     1014.6       14.7       13.2        0.0        0.0        0.0       0.00       13.5       1.26       0.00       10.8
7:16              242        0.0         71       13.4      187.8       13.4       15.2        8.3     1014.6       14.7       13.2        0.0        0.0        0.0       0.00       13.5       1.31       0.00       10.8
7:18              242        0.0         71       13.4      187.8       13.4       15.2        8.3     1014.6       14.7       13.2        0.0        0.0        0.0       0.00       13.6       1.31       0.00       10.8
7:20              242        0.0         71       13.4      187.8       13.4       15.2        8.3     1014.6       14.7       13.2        0.0        0.0        0.0       0.00       13.6       1.31       0.00       10.8
7:22              242        0.0         71       13.4      187.8       13.4       15.2        8.3     1014.5       14.7       13.2        0.0        0.0        0.0       0.00       13.7       1.31       0.00       10.8
7:24              242        0.0         71       13.4      187.8       13.4       15.2        8.3     1014.6       14.7       13.2        0.0        0.0        0.0       0.00       13.7       1.31       0.00       10.8
7:26              242        0.0         71       13.4      187.8       13.4       15.2        8.3     1014.5       14.7       13.2        0.0        0.0        0.0       0.00       13.8       1.31       0.00       10.8
7:28              242        0.0         71       13.4      187.8       13.4       15.2        8.3     1014.5       14.7       13.2        0.0        0.0        0.0       0.00       13.8       1.31       0.00       10.8
7:30              242        0.0         71       15.1      187.8       15.1       16.8        9.9     1014.6       15.1       13.2        0.0        0.0        0.0       0.00       13.9       1.31       0.00       10.8
7:32              242        0.0         72       15.1      187.8       15.1       16.9       10.1     1014.6       15.1       13.2        0.0        0.0        0.0       0.00       14.0       1.34       0.00       10.8
7:34              242        0.0         72       15.2      187.8       15.2       16.9       10.2     1014.6       15.2       13.2        0.0        0.0        0.0       0.00       14.0       1.34       0.00       10.8
7:36              242        0.0         72       15.3      187.8       15.3       17.1       10.3     1014.7       15.3       13.2        0.0        0.0        0.0       0.00       14.1       1.34       0.00       10.8
7:38              242        0.0         72       15.3      187.8       15.3       17.1       10.3     1014.6       15.3       13.2        0.0        0.0        0.0       0.00       14.2       1.34       0.00       10.8
7:40              242        0.0         72       15.4      187.8       15.4       17.2       10.4     1014.6       15.4       13.2        0.0        0.0        0.0       0.00       14.3       1.34       0.00       10.8
7:42              242        0.0         71       15.4      187.8       15.4       17.2       10.2     1014.7       15.4       13.2        0.0        0.0        0.0       0.00       14.4       1.34       0.00       10.8
7:44              243        0.0         71       15.4      187.8       15.4       17.2       10.2     1014.6       15.4       13.2        0.0        0.0        0.0       0.00       14.5       1.34       0.00       10.8
7:46              243        0.0         71       15.4      187.8       15.4       17.2       10.2     1014.6       15.4       13.2        0.0        0.0        0.0       0.00       14.5       1.37       0.00       10.8
7:48              243        0.0         71       15.5      187.8       15.5       17.2       10.3     1014.6       15.5       13.2        0.0        0.0        0.0       0.00       14.6       1.37       0.00       10.8
7:50              243        0.0         71       15.5      187.8       15.5       17.2       10.3     1014.7       15.5       13.2        0.0        0.0        0.0       0.00       14.7       1.37       0.00       10.8
7:52              244        0.0         71       15.6      187.8       15.6       17.3       10.3     1014.7       15.6       13.2        0.0        0.0        0.0       0.00       14.8       1.37       0.00       10.8
7:54              244        0.0         71       15.6      187.8       15.6       17.3       10.3     1014.6       15.6       13.2        0.0        0.0        0.0       0.00       14.9       1.37       0.00       10.8
7:56              245        0.0         70       15.6      187.8       15.6       17.3       10.2     1014.7       15.6       13.2        0.0        0.0        0.0       0.00       15.0       1.37       0.00       10.8
7:58              246        0.0         70       15.6      187.8       15.6       17.3       10.2     1014.7       15.6       13.2        0.0        0.0        0.0       0.00       15.1       1.37       0.00       10.8
8:00              246        0.0         70       15.6      187.8       15.6       17.3       10.2     1014.6       15.6       13.2        0.0        0.0        0.0       0.00       15.2       1.37       0.00       10.8
8:02              246        0.0         70       15.7      187.8       15.7       17.3       10.2     1014.6       15.7       13.2        0.0        0.0        0.0       0.00       15.3       1.39       0.00       10.8
8:04              246        0.0         70       15.7      187.8       15.7       17.4       10.3     1014.6       15.7       13.2        0.0        0.0        0.0       0.00       15.3       1.39       0.00       10.8
8:06              247        0.0         70       15.8      187.8       15.8       17.4       10.3     1014.5       15.8       13.2        0.0        0.0        0.0       0.00       15.4       1.39       0.00       10.8
8:08              247        0.0         70       15.8      187.8       15.8       17.5       10.4     1014.7       15.8       13.2        0.0        0.0        0.0       0.00       15.5       1.39       0.00       10.8
8:10              247        0.0         70       15.9      187.8       15.9       17.5       10.4     1014.6       15.9       13.2        0.0        0.0        0.0       0.00       15.6       1.39       0.00       10.8
8:12              251        0.0         69       15.9      187.8       15.9       17.5       10.3     1014.6       15.9       13.2        0.0        0.0        0.0       0.00       15.7       1.39       0.00       10.8
8:14              254        0.0         69       16.0      187.8       16.0       17.6       10.3     1014.7       16.0       13.2        0.0        0.0        0.0       0.00       15.8       1.39       0.00       10.8
8:16              254        0.0         69       16.1      187.8       16.1       17.6       10.4     1014.7       16.1       13.2        0.0        0.0        0.0       0.00       15.9       1.41       0.00       10.8
8:18              263        0.0         69       16.1      187.8       16.1       17.7       10.4     1014.8       16.1       13.2        0.0        0.0        0.0       0.00       16.0       1.41       0.00       10.8
8:20              263        0.0         68       16.2      187.8       16.2       17.7       10.3     1014.8       16.2       13.2        0.0        0.0        0.0       0.00       16.1       1.41       0.00       10.8
8:22              269        0.0         68       16.2      187.8       16.2       17.7       10.3     1014.8       16.2       13.2        0.0        0.0        0.0       0.00       16.3       1.41       0.00       10.8
8:24              269        0.0         68       16.2      187.8       16.2       17.7       10.3     1014.8       16.2       13.2        0.0        0.0        0.0       0.00       16.4       1.41       0.00       10.8
8:26              269        0.0         68       16.2      187.8       16.2       17.7       10.3     1014.7       16.2       13.2        0.0        0.0        0.0       0.00       16.4       1.41       0.00       10.8
8:28              269        0.0         68       16.2      187.8       16.2       17.7       10.3     1014.7       16.2       13.2        0.0        0.0        0.0       0.00       16.5       1.41       0.00       10.8
8:30              269        0.0         68       16.3      187.8       16.3       17.8       10.4     1014.8       16.3       13.2        0.0        0.0        0.0       0.00       16.6       1.41       0.00       10.8
8:32              269        0.0         68       16.3      187.8       16.3       17.8       10.4     1014.7       16.3       13.2        0.0        0.0        0.0       0.00       16.7       1.43       0.00       10.8
8:34              269        0.0         68       16.4      187.8       16.4       17.9       10.5     1014.8       16.4       13.2        0.0        0.0        0.0       0.00       16.8       1.43       0.00       10.8
8:36              269        0.0         66       16.4      187.8       16.4       17.8       10.1     1014.7       16.4       13.2        0.0        0.0        0.0       0.00       16.8       1.43       0.00       10.8
8:38              269        0.0         66       16.5      187.8       16.5       17.9       10.1     1014.8       16.5       13.2        0.0        0.0        0.0       0.00       16.9       1.43       0.00       10.8
8:40              269        0.0         66       16.6      187.8       16.6       17.9       10.2     1014.8       16.6       13.2        0.0        0.0        0.0       0.00       16.9       1.43       0.00       10.8
8:42              269        0.0         65       16.6      187.8       16.6       17.9       10.0     1014.8       16.6       13.2        0.0        0.0        0.0       0.00       17.0       1.43       0.00       10.8
8:44              269        0.0         65       16.7      187.8       16.7       18.0       10.1     1014.8       16.7       13.2        0.0        0.0        0.0       0.00       17.1       1.43       0.00       10.8
8:46              269        0.0         65       16.7      187.8       16.7       18.0       10.1     1014.7       16.7       13.2        0.0        0.0        0.0       0.00       17.2       1.44       0.00       10.8
8:48              269        0.0         65       16.7      187.8       16.7       18.0       10.1     1014.7       16.7       13.2        0.0        0.0        0.0       0.00       17.3       1.44       0.00       10.8
8:50              269        0.0         65       16.7      187.8       16.7       18.0       10.1     1014.8       16.7       13.2        0.0        0.0        0.0       0.00       17.4       1.44       0.00       10.8
8:52              270        0.0         65       16.7      187.8       16.7       18.0       10.1     1014.8       16.7       13.2        0.0        0.0        0.0       0.00       17.5       1.44       0.00       10.8
8:54              270        0.0         65       16.7      187.8       16.7       18.0       10.1     1014.7       16.7       13.2        0.0        0.0        0.0       0.00       17.6       1.44       0.00       10.8
8:56              270        0.0         64       16.8      187.8       16.8       18.0        9.9     1014.8       16.8       13.2        0.0        0.0        0.0       0.00       17.8       1.44       0.00       10.8
8:58              270        0.0         64       16.7      187.8       16.7       18.0        9.9     1014.8       16.8       13.2        0.0        0.0        0.0       0.00       17.9       1.44       0.00       10.8
9:00              270        0.0         65       16.8      187.8       16.8       18.1       10.2     1014.8       16.8       13.2        0.0        0.0        0.0       0.00       18.0       1.44       0.00       10.8
9:02              270        0.0         64       16.8      187.8       16.8       18.0        9.9     1014.8       16.8       13.2        0.0        0.0        0.0       0.00       18.1       1.46       0.00       10.8
9:04              270        0.0         64       16.8      187.8       16.8       18.1       10.0     1014.8       16.8       13.2        0.0        0.0        0.0       0.00       18.2       1.46       0.00       10.8
9:06              270        0.0         64       16.8      187.8       16.8       18.1       10.0     1014.7       16.8       13.2        0.0        0.0        0.0       0.00       18.3       1.46       0.00       10.8
9:08              270        0.0         64       16.9      187.8       16.9       18.1       10.0     1014.8       16.9       13.2        0.0        0.0        0.0       0.00       18.5       1.46       0.00       10.8
9:10              270        0.0         64       16.9      187.8       16.9       18.1       10.0     1014.8       16.9       13.2        0.0        0.0        0.0       0.00       18.6       1.46       0.00       10.8
9:12              270        0.0         64       16.9      187.8       16.9       18.2       10.1     1014.7       17.0       13.2        0.0        0.0        0.0       0.00       18.6       1.46       0.00       10.8
9:14              270        0.0         63       17.1      187.8       17.1       18.2       10.0     1014.7       17.1       13.2        0.0        0.0        0.0       0.00       18.6       1.46       0.00       10.8
9:16              270        0.0         63       17.1      187.8       17.1       18.2       10.0     1014.7       17.1       13.2        0.0        0.0        0.0       0.00       18.7       1.47       0.00       10.8
9:18              270        0.0         63       17.2      187.8       17.2       18.4       10.1     1014.7       17.2       13.2        0.0        0.0        0.0       0.00       18.7       1.47       0.00       10.8
9:20              270        0.0         63       17.3      187.8       17.3       18.5       10.2     1014.6       17.3       13.2        0.0        0.0        0.0       0.00       18.7       1.47       0.00       10.8
9:22              270        0.0         63       17.4      187.8       17.4       18.6       10.3     1014.7       17.4       13.2        0.0        0.0        0.0       0.00       18.8       1.47       0.00       10.8
9:24              270        0.0         62       17.6      187.8       17.6       18.7       10.3     1014.6       17.6       13.2        0.0        0.0        0.0       0.00       18.9       1.47       0.00       10.8
9:26              270        0.0         62       17.8      187.8       17.8       18.9       10.4     1014.6       17.8       13.2        0.0        0.0        0.0       0.00       18.9       1.47       0.00       10.8
9:28              270        0.0         62       18.0      187.8       18.0       19.1       10.6     1014.5       18.0       13.2        0.0        0.0        0.0       0.00       19.0       1.47       0.00       10.8
9:30              270        0.0         61       18.1      187.8       18.1       19.2       10.5     1014.5       18.1       13.2        0.0        0.0        0.0       0.00       19.1       1.47       0.00       10.8
9:32              270        0.0         60       18.1      187.8       18.1       19.1       10.2     1014.6       18.1       13.2        0.0        0.0        0.0       0.00       19.1       1.47       0.00       10.8
9:34              270        0.0         60       18.2      187.8       18.2       19.2       10.3     1014.5       18.2       13.2        0.0        0.0        0.0       0.00       19.1       1.47       0.00       10.8
9:36              270        0.0         60       18.2      187.8       18.2       19.2       10.3     1014.4       18.2       13.2        0.0        0.0        0.0       0.00       19.2       1.47       0.00       10.8
9:38              270        0.0         60       18.2      187.8       18.2       19.2       10.3     1014.4       18.2       13.2        0.0        0.0        0.0       0.00       19.3       1.47       0.00       10.8
9:40              270        0.0         60       18.2      187.8       18.2       19.2       10.3     1014.3       18.2       13.2        0.0        0.0        0.0       0.00       19.4       1.47       0.00       10.8
9:42              270        0.0         60       18.2      187.8       18.2       19.2       10.3     1014.4       18.2       13.2        0.0        0.0        0.0       0.00       19.5       1.47       0.00       10.8
9:44              270        0.0         60       18.3      187.8       18.3       19.3       10.4     1014.5       18.3       13.2        0.0        0.0        0.0       0.00       19.6       1.47       0.00       10.8
9:46              270        0.0         59       18.3      187.8       18.3       19.2       10.1     1014.5       18.3       13.2        0.0        0.0        0.0       0.00       19.7       1.47       0.00       10.8
9:48              270        0.0         59       18.3      187.8       18.3       19.2       10.1     1014.4       18.3       13.2        0.0        0.0        0.0       0.00       19.8       1.47       0.00       10.8
9:50              270        0.0         59       18.2      187.8       18.2       19.2       10.1     1014.4       18.3       13.2        0.0        0.0        0.0       0.00       19.9       1.47       0.00       10.8
9:52              270        0.0         59       18.2      187.8       18.2       19.2       10.1     1014.4       18.3       13.2        0.0        0.0        0.0       0.00       19.9       1.47       0.00       10.8
9:54              270        0.0         60       18.2      187.8       18.2       19.2       10.3     1014.4       18.3       13.2        0.0        0.0        0.0       0.00       20.0       1.47       0.00       10.8
9:56              270        0.0         60       18.3      187.8       18.3       19.3       10.4     1014.3       18.3       13.2        0.0        0.0        0.0       0.00       20.1       1.47       0.00       10.8
9:58              270        0.0         59       18.4      187.8       18.4       19.3       10.2     1014.4       18.4       13.2        0.0        0.0        0.0       0.00       20.1       1.47       0.00       10.8
10:00             270        0.0         59       18.5      187.8       18.5       19.4       10.3     1014.4       18.5       13.2        0.0        0.0        0.0       0.00       20.2       1.47       0.00       10.8
10:02             270        0.0         59       18.6      187.8       18.6       19.5       10.4     1014.4       18.6       13.2        0.0        0.0        0.0       0.00       20.2       1.47       0.00       10.8
10:04             270        0.0         58       18.7      187.8       18.7       19.6       10.2     1014.4       18.7       13.2        0.0        0.0        0.0       0.00       20.4       1.47       0.00       10.8
10:06             270        0.0         58       18.7      187.8       18.7       19.6       10.3     1014.4       18.8       13.2        0.0        0.0        0.0       0.00       20.5       1.47       0.00       10.8
10:08             270        0.0         58       18.8      187.8       18.8       19.7       10.3     1014.5       18.8       13.2        0.0        0.0        0.0       0.00       20.6       1.47       0.00       10.8
10:10             270        0.0         58       18.8      187.8       18.8       19.7       10.4     1014.5       18.8       13.2        0.0        0.0        0.0       0.00       20.7       1.47       0.00       10.8
10:12             270        0.0         57       18.9      187.8       18.9       19.7       10.2     1014.4       18.9       13.2        0.0        0.0        0.0       0.00       20.8       1.47       0.00       10.8
10:14             270        0.0         58       18.9      187.8       18.9       19.8       10.5     1014.5       18.9       13.2        0.0        0.0        0.0       0.00       20.9       1.47       0.00       10.8
10:16             270        0.0         58       19.0      187.8       19.0       19.9       10.6     1014.5       19.0       13.2        0.0        0.0        0.0       0.00       21.0       1.47       0.00       10.8
10:18             270        0.0         58       19.1      187.8       19.1       19.9       10.6     1014.3       19.1       13.2        0.0        0.0        0.0       0.00       21.2       1.47       0.00       10.8
10:20             270        0.0         57       19.1      187.8       19.1       19.9       10.3     1014.4       19.1       13.2        0.0        0.0        0.0       0.00       21.3       1.47       0.00       10.8
10:21             270        0.0         58       19.1      187.8       19.1       19.9       10.6     1014.4       19.1       13.2        0.0        0.0        0.0       0.00       21.4       1.47       0.00       10.8
10:24             270        0.0         58       19.1      187.8       19.1       19.9       10.6     1014.4       19.1       13.2        0.0        0.0        0.0       0.00       21.5       1.47       0.00       10.8
10:26             270        0.0         58       19.1      187.8       19.1       19.9       10.6     1014.3       19.1       13.2        0.0        0.0        0.0       0.00       21.6       1.47       0.00       10.8
10:28             261        0.0         58       19.1      187.8       19.1       19.9       10.6     1014.3       19.1       13.2        0.0        0.0        0.0       0.00       21.7       1.47       0.00       10.8
10:30             261        0.0         57       19.2      187.8       19.2       20.1       10.5     1014.3       19.2       13.2        0.0        0.0        0.0       0.00       21.8       1.47       0.00       10.8
10:32             278        0.0         57       19.3      187.8       19.3       20.1       10.6     1014.4       19.3       13.2        0.0        0.0        0.0       0.00       21.9       1.47       0.00       10.8
10:34             278        0.0         56       19.3      187.8       19.3       20.1       10.3     1014.3       19.3       13.2        0.0        0.0        0.0       0.00       22.0       1.47       0.00       10.8
10:36             278        0.0         56       19.3      187.8       19.3       20.1       10.3     1014.3       19.3       13.2        0.0        0.0        0.0       0.00       22.1       1.47       0.00       10.8
10:38             259        0.0         56       19.3      187.8       19.3       20.1       10.3     1014.3       19.3       13.2        0.0        0.0        0.0       0.00       22.3       1.47       0.00       10.8
10:40             259        0.0         55       19.4      187.8       19.4       20.1       10.1     1014.3       19.4       13.2        0.0        0.0        0.0       0.00       22.4       1.47       0.00       10.8
10:42             243        0.0         55       19.4      187.8       19.4       20.2       10.2     1014.3       19.4       13.2        0.0        0.0        0.0       0.00       22.6       1.47       0.00       10.8
10:44             243        0.0         54       19.4      187.8       19.4       20.1        9.9     1014.2       19.5       13.2        0.0        0.0        0.0       0.00       22.6       1.47       0.00       10.8
10:46             243        0.0         55       19.5      187.8       19.5       20.2       10.2     1014.2       19.5       13.2        0.0        0.0        0.0       0.00       22.8       1.47       0.00       10.8
10:48             242        0.0         55       19.6      187.8       19.6       20.3       10.3     1014.3       19.6       13.2        0.0        0.0        0.0       0.00       22.8       1.47       0.00       10.8
10:50             242        0.0         55       19.6      187.8       19.6       20.3       10.3     1014.1       19.6       13.2        0.0        0.0        0.0       0.00       22.9       1.47       0.00       10.8
10:52             242        0.0         55       19.7      187.8       19.7       20.4       10.4     1014.1       19.7       13.2        0.0        0.0        0.0       0.00       22.9       1.47       0.00       10.8
10:54             242        0.0         55       19.7      187.8       19.7       20.4       10.4     1014.1       19.7       13.2        0.0        0.0        0.0       0.00       23.0       1.47       0.00       10.8
10:56             238        0.0         54       19.9      187.8       19.9       20.6       10.4     1014.1       19.9       13.2        0.0        0.0        0.0       0.00       23.2       1.47       0.00       10.8
10:58             234        0.0         54       20.1      187.8       20.1       20.7       10.5     1014.1       20.1       13.2        0.0        0.0        0.0       0.00       23.4       1.47       0.00       10.8
11:00             251        0.0         53       20.2      187.8       20.2       20.8       10.3     1014.1       20.2       13.2        0.0        0.0        0.0       0.00       23.6       1.47       0.00       10.8
11:02             267        0.0         53       20.1      187.8       20.1       20.7       10.2     1014.1       20.2       13.2        0.0        0.0        0.0       0.00       23.7       1.47       0.00       10.8
11:04             267        0.0         53       20.1      187.8       20.1       20.7       10.2     1014.0       20.2       13.2        0.0        0.0        0.0       0.00       23.8       1.47       0.00       10.8
11:06             267        0.0         53       20.1      187.8       20.1       20.7       10.2     1013.9       20.2       13.2        0.0        0.0        0.0       0.00       23.9       1.47       0.00       10.8
11:08             267        0.0         54       20.1      187.8       20.1       20.8       10.5     1013.9       20.2       13.2        0.0        0.0        0.0       0.00       23.9       1.47       0.00       10.8
11:10             266        0.0         53       20.1      187.8       20.1       20.7       10.2     1013.8       20.2       13.2        0.0        0.0        0.0       0.00       24.1       1.47       0.00       10.8
11:12             261        0.0         53       20.1      187.8       20.1       20.7       10.2     1013.8       20.2       13.2        0.0        0.0        0.0       0.00       24.3       1.47       0.00       10.8
11:14             264        0.0         53       20.0      187.8       20.0       20.6       10.1     1013.8       20.2       13.2        0.0        0.0        0.0       0.00       24.5       1.47       0.00       10.8
11:16             276        0.0         52       19.9      187.8       19.9       20.5        9.8     1013.8       20.2       13.2        0.0        0.0        0.0       0.00       24.7       1.47       0.00       10.8
11:18             277        0.0         53       19.9      187.8       19.9       20.5       10.0     1013.8       20.2       13.2        0.0        0.0        0.0       0.00       24.8       1.47       0.00       10.8
11:20             277        0.0         52       19.9      187.8       19.9       20.5        9.8     1013.8       20.2       13.2        0.0        0.0        0.0       0.00       24.9       1.47       0.00       10.8
11:22             277        0.0         52       20.0      187.8       20.0       20.6        9.9     1013.8       20.2       13.2        0.0        0.0        0.0       0.00       25.0       1.47       0.00       10.8
11:24             269        0.0         53       20.1      187.8       20.1       20.7       10.2     1013.8       20.2       13.2        0.0        0.0        0.0       0.00       25.2       1.47       0.00       10.8
11:26             261        0.0         53       20.1      187.8       20.1       20.7       10.2     1013.9       20.2       13.2        0.0        0.0        0.0       0.00       25.3       1.47       0.00       10.8
11:28             261        0.0         53       20.1      187.8       20.1       20.7       10.2     1013.8       20.2       13.2        0.0        0.0        0.0       0.00       25.4       1.47       0.00       10.8
11:30             261        0.0         53       20.1      187.8       20.1       20.7       10.2     1013.8       20.2       13.2        0.0        0.0        0.0       0.00       25.5       1.47       0.00       10.8
11:32             261        0.0         52       20.1      187.8       20.1       20.7       10.0     1013.8       20.2       13.2        0.0        0.0        0.0       0.00       25.6       1.47       0.00       10.8
11:34             261        0.0         53       20.2      187.8       20.2       20.8       10.3     1013.7       20.2       13.2        0.0        0.0        0.0       0.00       25.6       1.47       0.00       10.8
11:36             261        0.0         53       20.3      187.8       20.3       20.9       10.4     1013.7       20.3       13.2        0.0        0.0        0.0       0.00       25.7       1.47       0.00       10.8
11:38             261        0.0         52       20.4      187.8       20.4       20.9       10.2     1013.7       20.4       13.2        0.0        0.0        0.0       0.00       25.7       1.47       0.00       10.8
11:40             261        0.0         53       20.4      187.8       20.4       21.1       10.6     1013.5       20.4       13.2        0.0        0.0        0.0       0.00       25.8       1.47       0.00       10.8
11:42             261        0.0         52       20.6      187.8       20.6       21.1       10.4     1013.5       20.6       13.2        0.0        0.0        0.0       0.00       25.9       1.47       0.00       10.8
11:44             251        0.0         51       20.6      187.8       20.6       21.1       10.1     1013.5       20.6       13.2        0.0        0.0        0.0       0.00       26.1       1.47       0.00       10.8
11:46             252        0.0         51       20.7      187.8       20.7       21.2       10.2     1013.5       20.7       13.2        0.0        0.0        0.0       0.00       26.2       1.47       0.00       10.8
11:48             251        0.0         51       20.8      187.8       20.8       21.3       10.3     1013.4       20.8       13.2        0.0        0.0        0.0       0.00       26.2       1.47       0.00       10.8
11:50             251        0.0         50       20.9      187.8       20.9       21.3       10.1     1013.3       20.9       13.2        0.0        0.0        0.0       0.00       26.3       1.47       0.00       10.8
11:52             252        0.0         51       21.0      187.8       21.0       21.5       10.5     1013.3       21.0       13.2        0.0        0.0        0.0       0.00       26.4       1.47       0.00       10.8
11:54             246        0.0         50       21.2      187.8       21.2       21.6       10.3     1013.4       21.2       13.2        0.0        0.0        0.0       0.00       26.6       1.47       0.00       10.8
11:56             246        0.0         49       21.3      187.8       21.3       21.7       10.1     1013.3       21.3       13.2        0.0        0.0        0.0       0.00       26.7       1.47       0.00       10.8
11:58             246        0.0         50       21.3      187.8       21.3       21.8       10.5     1013.4       21.3       13.2        0.0        0.0        0.0       0.00       26.8       1.47       0.00       10.8
12:00             259        0.0         49       21.3      187.8       21.3       21.7       10.2     1013.2       21.4       13.2        0.0        0.0        0.0       0.00       27.0       1.47       0.00       10.8
12:02             259        0.0         49       21.3      187.8       21.3       21.7       10.2     1013.3       21.4       13.2        0.0        0.0        0.0       0.00       27.0       1.47       0.00       10.8
12:04             259        0.0         49       21.3      187.8       21.3       21.7       10.2     1013.3       21.4       13.2        0.0        0.0        0.0       0.00       27.1       1.47       0.00       10.8
12:06             261        0.0         48       21.3      187.8       21.3       21.7        9.9     1013.2       21.4       13.2        0.0        0.0        0.0       0.00       27.3       1.47       0.00       10.8
12:08             261        0.0         49       21.3      187.8       21.3       21.7       10.2     1013.3       21.4       13.2        0.0        0.0        0.0       0.00       27.4       1.47       0.00       10.8
12:10             263        0.0         48       21.4      187.8       21.4       21.7        9.9     1013.3       21.4       13.2        0.0        0.0        0.0       0.00       27.5       1.47       0.00       10.8
12:12             263        0.0         47       21.4      187.8       21.4       21.7        9.7     1013.3       21.4       13.2        0.0        0.0        0.0       0.00       27.7       1.47       0.00       10.8
12:14             271        0.0         47       21.4      187.8       21.4       21.7        9.7     1013.4       21.4       13.2        0.0        0.0        0.0       0.00       27.9       1.47       0.00       10.8
12:16             271        0.0         47       21.5      187.8       21.5       21.8        9.7     1013.2       21.5       13.2        0.0        0.0        0.0       0.00       28.0       1.47       0.00       10.8
12:18             271        0.0         48       21.6      187.8       21.6       22.0       10.1     1013.2       21.6       13.2        0.0        0.0        0.0       0.00       28.1       1.47       0.00       10.8
12:20             273        0.0         47       21.7      187.8       21.7       22.0        9.9     1013.2       21.7       13.2        0.0        0.0        0.0       0.00       28.2       1.47       0.00       10.8
12:22             273        0.0         47       21.7      187.8       21.7       22.0        9.9     1013.1       21.7       13.2        0.0        0.0        0.0       0.00       28.3       1.47       0.00       10.8
12:24             265        0.0         46       21.8      187.8       21.8       22.0        9.7     1013.1       21.8       13.2        0.0        0.0        0.0       0.00       28.5       1.47       0.00       10.8
12:26             265        0.0         46       21.8      187.8       21.8       22.0        9.7     1013.1       21.8       13.2        0.0        0.0        0.0       0.00       28.7       1.47       0.00       10.8
12:28             273        0.0         48       21.8      187.8       21.8       22.1       10.3     1013.2       21.8       13.2        0.0        0.0        0.0       0.00       28.9       1.47       0.00       10.8
12:29             274        0.0         47       21.8      187.8       21.8       22.1       10.0     1013.1       21.8       13.2        0.0        0.0        0.0       0.00       29.0       1.47       0.00       10.8
12:32             280        0.0         48       21.8      187.8       21.8       22.2       10.3     1013.0       21.8       13.2        0.0        0.0        0.0       0.00       29.1       1.47       0.00       10.8
12:34             280        0.0         47       21.9      187.8       21.9       22.2       10.1     1013.1       21.9       13.2        0.0        0.0        0.0       0.00       29.2       1.47       0.00       10.8
12:36             280        0.0         46       22.0      187.8       22.0       22.2        9.9     1013.0       22.0       13.2        0.0        0.0        0.0       0.00       29.3       1.47       0.00       10.8
12:38             279        0.0         46       22.0      187.8       22.0       22.2        9.9     1012.9       22.0       13.2        0.0        0.0        0.0       0.00       29.4       1.47       0.00       10.8
12:40             280        0.0         46       22.0      187.8       22.0       22.2        9.9     1012.9       22.0       13.2        0.0        0.0        0.0       0.00       29.6       1.47       0.00       10.8
12:42             280        0.0         46       22.0      187.8       22.0       22.2        9.9     1012.8       22.0       13.2        0.0        0.0        0.0       0.00       29.7       1.47       0.00       10.8
12:44             275        0.0         46       22.0      187.8       22.0       22.2        9.9     1012.8       22.0       13.2        0.0        0.0        0.0       0.00       29.9       1.47       0.00       10.8
12:46             266        0.0         46       22.0      187.8       22.0       22.2        9.9     1012.8       22.0       13.2        0.0        0.0        0.0       0.00       30.0       1.47       0.00       10.8
12:48             266        0.0         46       22.0      187.8       22.0       22.2        9.9     1012.8       22.0       13.2        0.0        0.0        0.0       0.00       30.1       1.47       0.00       10.8
12:50             266        0.0         46       22.0      187.8       22.0       22.2        9.9     1012.8       22.0       13.2        0.0        0.0        0.0       0.00       30.1       1.47       0.00       10.8
12:52             266        0.0         46       22.0      187.8       22.0       22.2        9.9     1012.7       22.0       13.2        0.0        0.0        0.0       0.00       30.2       1.47       0.00       10.8
12:54             232        0.0         46       22.1      187.8       22.1       22.4       10.0     1012.8       22.1       13.2        0.0        0.0        0.0       0.00       30.2       1.47       0.00       10.8
12:56             258        0.0         46       22.1      187.8       22.1       22.3        9.9     1012.7       22.1       13.2        0.0        0.0        0.0       0.00       30.4       1.47       0.00       10.8
12:58             267        0.0         47       21.9      187.8       21.9       22.2       10.1     1012.7       22.1       13.2        0.0        0.0        0.0       0.00       30.6       1.47       0.00       10.8
13:00             285        0.0         47       21.9      187.8       21.9       22.2       10.1     1012.8       22.1       13.2        0.0        0.0        0.0       0.00       30.9       1.47       0.00       10.8
13:02             275        0.0         47       21.9      187.8       21.9       22.2       10.1     1012.7       22.1       13.2        0.0        0.0        0.0       0.00       31.0       1.47       0.00       10.8
13:04             275        0.0         47       21.9      187.8       21.9       22.2       10.1     1012.8       22.1       13.2        0.0        0.0        0.0       0.00       31.1       1.47       0.00       10.8
13:06             275        0.0         47       21.9      187.8       21.9       22.2       10.1     1012.6       22.1       13.2        0.0        0.0        0.0       0.00       31.2       1.47       0.00       10.8
13:08             275        0.0         47       21.9      187.8       21.9       22.2       10.1     1012.6       22.1       13.2        0.0        0.0        0.0       0.00       31.3       1.47       0.00       10.8
13:10             217        0.0         47       22.3      187.8       22.3       22.6       10.5     1012.6       22.3       13.2        0.0        0.0        0.0       0.00       31.5       1.47       0.00       10.8
13:12             214        0.0         46       22.5      187.8       22.5       22.7       10.3     1012.6       22.5       13.2        0.0        0.0        0.0       0.00       31.7       1.47       0.00       10.8
13:14             208        0.0         47       22.6      187.8       22.6       22.9       10.7     1012.5       22.6       13.2        0.0        0.0        0.0       0.00       31.8       1.47       0.00       10.8
13:16             217        0.0         47       22.8      187.8       22.8       23.1       10.9     1012.5       22.8       13.2        0.0        0.0        0.0       0.00       31.9       1.47       0.01       10.8
13:18             217        0.0         45       22.8      187.8       22.8       23.0       10.2     1012.4       22.8       13.2        0.0        0.0        0.0       0.00       32.1       1.47       0.01       10.8
13:20             218        0.0         46       22.8      187.8       22.8       23.1       10.6     1012.4       22.8       13.2        0.0        0.0        0.0       0.00       32.2       1.47       0.01       10.8
13:22             218        0.0         46       22.8      187.8       22.8       23.1       10.6     1012.5       22.8       13.2        0.0        0.0        0.0       0.00       32.2       1.47       0.01       10.8
13:24             213        0.0         45       22.8      187.8       22.8       23.0       10.3     1012.5       22.8       13.2        0.0        0.0        0.0       0.00       32.4       1.47       0.01       10.8
13:26             213        0.0         44       22.9      187.8       22.9       23.0       10.0     1012.6       22.9       13.2        0.0        0.0        0.0       0.00       32.5       1.47       0.01       10.8
13:28             213        0.0         45       22.9      187.8       22.9       23.1       10.3     1012.4       22.9       13.2        0.0        0.0        0.0       0.00       32.6       1.47       0.01       10.8
13:30             213        0.0         45       22.9      187.8       22.9       23.1       10.4     1012.4       22.9       13.2        0.0        0.0        0.0       0.00       32.6       1.47       0.01       10.8
13:32             213        0.0         45       23.0      187.8       23.0       23.2       10.4     1012.4       23.0       13.2        0.0        0.0        0.0       0.00       32.6       1.47       0.02       10.8
13:34             213        0.0         45       23.2      187.8       23.2       23.4       10.6     1012.4       23.2       13.2        0.0        0.0        0.0       0.00       32.7       1.47       0.02       10.8
13:36             213        0.0         45       23.2      187.8       23.2       23.4       10.6     1012.4       23.2       13.2        0.0        0.0        0.0       0.00       32.8       1.47       0.02       10.8
13:38             253        0.0         42       23.2      187.8       23.2       23.3        9.6     1012.3       23.2       13.2        0.0        0.0        0.0       0.00       33.0       1.47       0.02       10.8
13:40             253        0.0         43       23.1      187.8       23.1       23.2        9.9     1012.2       23.2       13.2        0.0        0.0        0.0       0.00       33.2       1.47       0.02       10.8
13:42             248        0.0         43       23.0      187.8       23.0       23.1        9.8     1012.2       23.2       13.2        0.0        0.0        0.0       0.00       33.2       1.47       0.02       10.8
13:44             247        0.0         43       22.9      187.8       22.9       23.0        9.7     1012.1       23.2       13.2        0.0        0.0        0.0       0.00       33.4       1.47       0.02       10.8
13:46             247        0.0         43       22.9      187.8       22.9       23.0        9.7     1012.2       23.2       13.2        0.0        0.0        0.0       0.00       33.6       1.47       0.03       10.8
13:48             247        0.0         43       22.9      187.8       22.9       23.0        9.7     1012.1       23.2       13.2        0.0        0.0        0.0       0.00       33.7       1.47       0.03       10.8
13:50             252        0.0         44       22.9      187.8       22.9       23.0       10.0     1012.0       23.2       13.2        0.0        0.0        0.0       0.00       33.9       1.47       0.03       10.8
13:52             252        0.0         44       22.9      187.8       22.9       23.0       10.0     1012.0       23.2       13.2        0.0        0.0        0.0       0.00       33.9       1.47       0.03       10.8
13:54             298        0.0         44       22.9      187.8       22.9       23.1       10.1     1011.9       23.2       13.2        0.0        0.0        0.0       0.00       34.1       1.47       0.03       10.8
13:56             272        0.0         43       23.0      187.8       23.0       23.1        9.8     1011.9       23.2       13.2        0.0        0.0        0.0       0.00       34.2       1.47       0.03       10.8
13:58             268        0.0         43       23.1      187.8       23.1       23.2        9.9     1012.0       23.2       13.2        0.0        0.0        0.0       0.00       34.4       1.47       0.03       10.8
14:00             250        0.0         42       23.2      187.8       23.2       23.3        9.6     1011.8       23.2       13.2        0.0        0.0        0.0       0.00       34.7       1.47       0.03       10.8
14:02             309        0.0         42       23.2      187.8       23.2       23.2        9.6     1011.9       23.2       13.2        0.0        0.0        0.0       0.00       34.9       1.47       0.04       10.8
14:04             298        0.0         41       23.1      187.8       23.1       23.1        9.2     1011.8       23.2       13.2        0.0        0.0        0.0       0.00       35.2       1.47       0.04       10.8
14:06             290        0.0         42       23.1      187.8       23.1       23.1        9.5     1011.9       23.2       13.2        0.0        0.0        0.0       0.00       35.4       1.47       0.04       10.8
14:08             306        0.0         42       23.1      187.8       23.1       23.1        9.5     1011.9       23.2       13.2        0.0        0.0        0.0       0.00       35.6       1.47       0.04       10.8
14:10             296        0.0         42       23.1      187.8       23.1       23.2        9.5     1011.8       23.2       13.2        0.0        0.0        0.0       0.00       35.7       1.47       0.04       10.8
14:12             290        0.0         42       23.1      187.8       23.1       23.2        9.5     1011.8       23.2       13.2        0.0        0.0        0.0       0.00       35.8       1.47       0.04       10.8
14:14             279        0.0         42       23.1      187.8       23.1       23.2        9.5     1011.8       23.2       13.2        0.0        0.0        0.0       0.00       36.0       1.47       0.04       10.8
14:16             251        0.0         42       23.2      187.8       23.2       23.2        9.6     1011.7       23.2       13.2        0.0        0.0        0.0       0.00       36.2       1.47       0.05       10.8
14:18             261        0.0         43       23.2      187.8       23.2       23.3        9.9     1011.7       23.2       13.2        0.0        0.0        0.0       0.00       36.3       1.47       0.05       10.8
14:20             261        0.0         43       23.2      187.8       23.2       23.3        9.9     1011.7       23.2       13.2        0.0        0.0        0.0       0.00       36.6       1.47       0.05       10.8
14:22             261        0.0         43       23.2      187.8       23.2       23.3        9.9     1011.6       23.2       13.2        0.0        0.0        0.0       0.00       36.9       1.47       0.05       10.8
14:24             261        0.0         43       23.2      187.8       23.2       23.3        9.9     1011.7       23.2       13.2        0.0        0.0        0.0       0.00       37.1       1.47       0.05       10.8
14:26             276        0.0         43       23.1      187.8       23.1       23.2        9.8     1011.7       23.2       13.2        0.0        0.0        0.0       0.00       37.4       1.47       0.05       10.8
14:28             300        0.0         42       22.9      187.8       22.9       23.0        9.4     1011.7       23.2       13.2        0.0        0.0        0.0       0.00       37.6       1.47       0.05       10.8
14:30             251        0.0         42       22.9      187.8       22.9       22.9        9.3     1011.6       23.2       13.2        0.0        0.0        0.0       0.00       37.9       1.47       0.05       10.8
14:32             251        0.0         42       22.9      187.8       22.9       22.9        9.3     1011.5       23.2       13.2        0.0        0.0        0.0       0.00       38.0       1.47       0.06       10.8
14:34             251        0.0         42       22.9      187.8       22.9       22.9        9.3     1011.5       23.2       13.2        0.0        0.0        0.0       0.00       38.2       1.47       0.06       10.8
14:36             251        0.0         42       22.9      187.8       22.9       22.9        9.3     1011.6       23.2       13.2        0.0        0.0        0.0       0.00       38.3       1.47       0.06       10.8
14:38             251        0.0         42       22.9      187.8       22.9       22.9        9.3     1011.6       23.2       13.2        0.0        0.0        0.0       0.00       38.5       1.47       0.06       10.8
14:40             257        0.0         41       23.2      187.8       23.2       23.2        9.2     1011.6       23.2       13.2        0.0        0.0        0.0       0.00       38.7       1.47       0.06       10.8
14:42             236        0.0         41       23.2      187.8       23.2       23.2        9.2     1011.4       23.2       13.2        0.0        0.0        0.0       0.00       38.8       1.47       0.06       10.8
14:44             244        0.0         41       23.2      187.8       23.2       23.2        9.2     1011.5       23.2       13.2        0.0        0.0        0.0       0.00       39.0       1.47       0.06       10.8
14:46             250        0.0         41       23.2      187.8       23.2       23.2        9.3     1011.5       23.2       13.2        0.0        0.0        0.0       0.00       39.2       1.47       0.07       10.8
14:48             280        0.0         40       23.3      187.8       23.3       23.2        8.9     1011.5       23.3       13.2        0.0        0.0        0.0       0.00       39.3       1.47       0.07       10.8
14:50             286        0.0         40       23.3      187.8       23.3       23.2        8.9     1011.5       23.3       13.2        0.0        0.0        0.0       0.00       39.5       1.47       0.07       10.8
14:52             293        0.0         40       23.3      187.8       23.3       23.2        8.9     1011.5       23.3       13.2        0.0        0.0        0.0       0.00       39.7       1.47       0.07       10.8
14:54             293        0.0         40       23.4      187.8       23.4       23.3        9.0     1011.5       23.4       13.2        0.0        0.0        0.0       0.00       39.8       1.47       0.07       10.8
14:56             300        0.0         41       23.6      187.8       23.6       23.6        9.6     1011.5       23.6       13.2        0.0        0.0        0.0       0.00       40.0       1.47       0.07       10.8
14:58             315        0.0         41       23.7      187.8       23.7       23.7        9.7     1011.5       23.7       13.2        0.0        0.0        0.0       0.00       40.2       1.47       0.07       10.8
15:00             311        0.0         40       23.8      187.8       23.8       23.8        9.4     1011.6       23.8       13.2        0.0        0.0        0.0       0.00       40.4       1.47       0.07       10.8
15:02             311        0.0         40       23.8      187.8       23.8       23.8        9.4     1011.6       23.8       13.2        0.0        0.0        0.0       0.00       40.5       1.47       0.09       10.8
15:04             311        0.0         40       23.8      187.8       23.8       23.8        9.4     1011.3       23.8       13.2        0.0        0.0        0.0       0.00       40.6       1.47       0.09       10.8
15:06             311        0.0         40       23.8      187.8       23.8       23.8        9.4     1011.3       23.8       13.2        0.0        0.0        0.0       0.00       40.7       1.47       0.09       10.8
15:08             299        0.0         40       23.6      187.8       23.6       23.5        9.2     1011.3       23.8       13.2        0.0        0.0        0.0       0.00       40.8       1.47       0.09       10.8
15:10             289        0.0         40       23.5      187.8       23.5       23.5        9.1     1011.2       23.8       13.2        0.0        0.0        0.0       0.00       41.0       1.47       0.09       10.8
15:12             289        0.0         40       23.5      187.8       23.5       23.5        9.1     1011.2       23.8       13.2        0.0        0.0        0.0       0.00       41.1       1.47       0.09       10.8
15:14             289        0.0         40       23.5      187.8       23.5       23.5        9.1     1011.2       23.8       13.2        0.0        0.0        0.0       0.00       41.2       1.47       0.09       10.8
15:15             289        0.0         40       23.5      187.8       23.5       23.5        9.1     1011.2       23.8       13.2        0.0        0.0        0.0       0.00       41.3       1.47       0.11       10.8
15:18             322        0.0         40       23.6      187.8       23.6       23.6        9.2     1011.3       23.8       13.2        0.0        0.0        0.0       0.00       41.5       1.47       0.11       10.8
15:20             257        0.0         40       23.6      187.8       23.6       23.5        9.2     1011.3       23.8       13.2        0.0        0.0        0.0       0.00       41.6       1.47       0.11       10.8
15:22             266        0.0         40       23.5      187.8       23.5       23.5        9.1     1011.3       23.8       13.2        0.0        0.0        0.0       0.00       41.9       1.47       0.11       10.8
15:24             273        0.0         41       23.4      187.8       23.4       23.4        9.4     1011.3       23.8       13.2        0.0        0.0        0.0       0.00       42.3       1.47       0.11       10.8
15:26             267        0.0         40       23.4      187.8       23.4       23.3        9.0     1011.3       23.8       13.2        0.0        0.0        0.0       0.00       42.6       1.47       0.11       10.8
15:28             257        0.0         40       23.4      187.8       23.4       23.3        9.0     1011.2       23.8       13.2        0.0        0.0        0.0       0.00       42.9       1.47       0.11       10.8
15:30             257        0.0         40       23.4      187.8       23.4       23.3        9.0     1011.3       23.8       13.2        0.0        0.0        0.0       0.00       43.1       1.47       0.11       10.8
15:32             257        0.0         40       23.4      187.8       23.4       23.3        9.0     1011.3       23.8       13.2        0.0        0.0        0.0       0.00       43.3       1.47       0.12       10.8
15:34             257        0.0         40       23.4      187.8       23.4       23.3        9.0     1011.4       23.8       13.2        0.0        0.0        0.0       0.00       43.5       1.47       0.12       10.8
15:36             257        0.0         40       23.4      187.8       23.4       23.3        9.0     1011.2       23.8       13.2        0.0        0.0        0.0       0.00       43.7       1.47       0.12       10.8
15:38             257        0.0         40       23.4      187.8       23.4       23.3        9.0     1011.3       23.8       13.2        0.0        0.0        0.0       0.00       44.0       1.47       0.12       10.8
15:40             257        0.0         40       23.4      187.8       23.4       23.3        9.0     1011.2       23.8       13.2        0.0        0.0        0.0       0.00       44.2       1.47       0.12       10.8
15:42             257        0.0         40       23.4      187.8       23.4       23.3        9.0     1011.3       23.8       13.2        0.0        0.0        0.0       0.00       44.4       1.47       0.12       10.8
15:44             257        0.0         40       23.4      187.8       23.4       23.3        9.0     1011.2       23.8       13.2        0.0        0.0        0.0       0.00       44.6       1.47       0.12       10.8
15:46             257        0.0         40       23.4      187.8       23.4       23.3        9.0     1011.2       23.8       13.2        0.0        0.0        0.0       0.00       44.8       1.47       0.14       10.8
15:48             257        0.0         40       23.4      187.8       23.4       23.3        9.0     1011.2       23.8       13.2        0.0        0.0        0.0       0.00       45.0       1.47       0.14       10.8
15:50             257        0.0         40       23.4      187.8       23.4       23.3        9.0     1011.2       23.8       13.2        0.0        0.0        0.0       0.00       45.2       1.47       0.14       10.8
15:52             257        0.0         40       23.4      187.8       23.4       23.3        9.0     1011.1       23.8       13.2        0.0        0.0        0.0       0.00       45.5       1.47       0.14       10.8
15:54             281        0.0         40       23.5      187.8       23.5       23.5        9.1     1011.2       23.8       13.2        0.0        0.0        0.0       0.00       45.6       1.47       0.14       10.8
15:56             291        0.0         38       23.6      187.8       23.6       23.4        8.4     1011.2       23.8       13.2        0.0        0.0        0.0       0.00       45.9       1.47       0.14       10.8
15:58             296        0.0         39       23.4      187.8       23.4       23.4        8.7     1011.1       23.8       13.2        0.0        0.0        0.0       0.00       46.0       1.47       0.14       10.8
16:00             330        0.0         39       23.3      187.8       23.3       23.2        8.6     1011.1       23.8       13.2        0.0        0.0        0.0       0.00       46.2       1.47       0.14       10.8
16:02             336        0.0         39       23.3      187.8       23.3       23.2        8.6     1011.0       23.8       13.2        0.0        0.0        0.0       0.00       46.4       1.47       0.15       10.8
16:04             336        0.0         39       23.4      187.8       23.4       23.3        8.7     1011.0       23.8       13.2        0.0        0.0        0.0       0.00       46.5       1.47       0.15       10.8
16:06             315        0.0         40       23.6      187.8       23.6       23.5        9.2     1011.0       23.8       13.2        0.0        0.0        0.0       0.00       46.7       1.47       0.15       10.8
16:08             313        0.0         38       23.7      187.8       23.7       23.6        8.6     1011.0       23.8       13.2        0.0        0.0        0.0       0.00       46.8       1.47       0.15       10.8
16:10             313        0.0         38       23.8      187.8       23.8       23.7        8.6     1010.9       23.8       13.2        0.0        0.0        0.0       0.00       47.0       1.47       0.15       10.8
16:12             313        0.0         38       23.8      187.8       23.8       23.7        8.6     1011.0       23.8       13.2        0.0        0.0        0.0       0.00       47.1       1.47       0.15       10.8
16:14             292        0.0         38       23.8      187.8       23.8       23.7        8.6     1011.0       23.8       13.2        0.0        0.0        0.0       0.00       47.3       1.47       0.15       10.8
16:16             292        0.0         38       23.9      187.8       23.9       23.8        8.7     1011.0       23.9       13.2        0.0        0.0        0.0       0.00       47.4       1.47       0.17       10.8
16:18             261        0.0         38       23.9      187.8       23.9       23.8        8.7     1011.0       23.9       13.2        0.0        0.0        0.0       0.00       47.7       1.47       0.17       10.8
16:20             262        0.0         38       24.1      187.8       24.1       24.0        8.9     1011.0       24.1       13.2        0.0        0.0        0.0       0.00       47.8       1.47       0.17       10.8
16:22             262        0.0         38       24.1      187.8       24.1       24.0        8.9     1011.0       24.1       13.2        0.0        0.0        0.0       0.00       47.9       1.47       0.17       10.8
16:24             262        0.0         38       24.1      187.8       24.1       24.0        8.9     1011.0       24.1       13.2        0.0        0.0        0.0       0.00       47.9       1.47       0.17       10.8
16:26             262        0.0         38       24.1      187.8       24.1       24.0        8.9     1011.0       24.1       13.2        0.0        0.0        0.0       0.00       48.0       1.47       0.17       10.8
16:28             262        0.0         38       24.1      187.8       24.1       24.0        8.9     1011.1       24.1       13.2        0.0        0.0        0.0       0.00       48.1       1.47       0.17       10.8
16:30             262        0.0         38       24.1      187.8       24.1       24.0        8.9     1011.0       24.1       13.2        0.0        0.0        0.0       0.00       48.1       1.47       0.17       10.8
16:31             262        0.0         38       24.1      187.8       24.1       24.0        8.9     1011.1       24.1       13.2        0.0        0.0        0.0       0.00       48.2       1.47       0.19       10.8
16:34             262        0.0         38       24.1      187.8       24.1       24.0        8.9     1011.1       24.1       13.2        0.0        0.0        0.0       0.00       48.2       1.47       0.19       10.8
16:36             262        0.0         38       24.1      187.8       24.1       24.0        8.9     1011.0       24.1       13.2        0.0        0.0        0.0       0.00       48.3       1.47       0.19       10.8
16:38             262        0.0         38       24.1      187.8       24.1       24.0        8.9     1011.0       24.1       13.2        0.0        0.0        0.0       0.00       48.3       1.47       0.19       10.8
16:40             262        0.0         38       24.1      187.8       24.1       24.0        8.9     1011.0       24.1       13.2        0.0        0.0        0.0       0.00       48.4       1.47       0.19       10.8
16:42             262        0.0         38       24.1      187.8       24.1       24.0        8.9     1011.0       24.1       13.2        0.0        0.0        0.0       0.00       48.4       1.47       0.19       10.8
16:44             262        0.0         38       24.1      187.8       24.1       24.0        8.9     1011.1       24.1       13.2        0.0        0.0        0.0       0.00       48.5       1.47       0.19       10.8
16:46             262        0.0         38       24.1      187.8       24.1       24.0        8.9     1011.0       24.1       13.2        0.0        0.0        0.0       0.00       48.5       1.47       0.21       10.8
16:48             262        0.0         38       24.1      187.8       24.1       24.0        8.9     1011.0       24.1       13.2        0.0        0.0        0.0       0.00       48.6       1.47       0.21       10.8
16:50             262        0.0         38       24.1      187.8       24.1       24.0        8.9     1011.0       24.1       13.2        0.0        0.0        0.0       0.00       48.6       1.47       0.21       10.8
16:52             262        0.0         38       24.1      187.8       24.1       24.0        8.9     1010.9       24.1       13.2        0.0        0.0        0.0       0.00       48.7       1.47       0.21       10.8
16:54             262        0.0         38       24.1      187.8       24.1       24.0        8.9     1010.9       24.1       13.2        0.0        0.0        0.0       0.00       48.8       1.47       0.21       10.8
16:56             262        0.0         38       24.1      187.8       24.1       24.0        8.9     1010.9       24.1       13.2        0.0        0.0        0.0       0.00       48.8       1.47       0.21       10.8
16:58             262        0.0         38       24.1      187.8       24.1       24.0        8.9     1010.9       24.1       13.2        0.0        0.0        0.0       0.00       48.9       1.47       0.21       10.8
17:00             262        0.0         38       24.1      187.8       24.1       24.0        8.9     1010.9       24.1       13.2        0.0        0.0        0.0       0.00       48.9       1.47       0.21       10.8
17:02             262        0.0         38       24.1      187.8       24.1       24.0        8.9     1010.9       24.1       13.2        0.0        0.0        0.0       0.00       49.0       1.47       0.24       10.8
17:04             265        0.0         38       24.1      187.8       24.1       24.0        8.9     1010.8       24.1       13.2        0.0        0.0        0.0       0.00       49.0       1.47       0.24       10.8
17:06             267        0.0         41       23.7      187.8       23.7       23.7        9.7     1010.9       24.1       13.2        0.0        0.0        0.0       0.00       49.2       1.47       0.24       10.8
17:08             303        0.0         40       23.7      187.8       23.7       23.6        9.3     1010.8       24.1       13.2        0.0        0.0        0.0       0.00       49.4       1.47       0.24       10.8
17:10             317        0.0         41       23.6      187.8       23.6       23.6        9.6     1010.8       24.1       13.2        0.0        0.0        0.0       0.00       49.6       1.47       0.24       10.8
17:12             267        0.0         41       23.6      187.8       23.6       23.6        9.6     1010.9       24.1       13.2        0.0        0.0        0.0       0.00       49.9       1.47       0.24       10.8
17:14             253        0.0         40       23.5      187.8       23.5       23.5        9.1     1010.9       24.1       13.2        0.0        0.0        0.0       0.00       50.1       1.47       0.24       10.8
17:16             259        0.0         41       23.5      187.8       23.5       23.5        9.5     1010.9       24.1       13.2        0.0        0.0        0.0       0.00       50.3       1.47       0.25       10.8
17:18             281        0.0         41       23.5      187.8       23.5       23.5        9.5     1010.9       24.1       13.2        0.0        0.0        0.0       0.00       50.6       1.47       0.25       10.8
17:20             264        0.0         41       23.5      187.8       23.5       23.5        9.5     1010.9       24.1       13.2        0.0        0.0        0.0       0.00       50.8       1.47       0.25       10.8
17:22             261        0.0         40       23.4      187.8       23.4       23.4        9.1     1010.9       24.1       13.2        0.0        0.0        0.0       0.00       51.0       1.47       0.25       10.8
17:24             258        0.0         41       23.3      187.8       23.3       23.3        9.4     1011.0       24.1       13.2        0.0        0.0        0.0       0.00       51.2       1.47       0.25       10.8
17:26             262        0.0         41       23.3      187.8       23.3       23.3        9.3     1011.0       24.1       13.2        0.0        0.0        0.0       0.00       51.4       1.47       0.25       10.8
17:28             284        0.0         41       23.2      187.8       23.2       23.2        9.2     1011.0       24.1       13.2        0.0        0.0        0.0       0.00       51.6       1.47       0.25       10.8
17:30             294        0.0         41       23.2      187.8       23.2       23.2        9.3     1011.0       24.1       13.2        0.0        0.0        0.0       0.00       51.8       1.47       0.25       10.8
17:32             296        0.0         40       23.2      187.8       23.2       23.2        8.9     1010.9       24.1       13.2        0.0        0.0        0.0       0.00       52.1       1.47       0.26       10.8
17:34             292        0.0         41       23.2      187.8       23.2       23.2        9.2     1010.9       24.1       13.2        0.0        0.0        0.0       0.00       52.3       1.47       0.26       10.8
17:36             252        0.0         40       23.2      187.8       23.2       23.2        8.9     1011.1       24.1       13.2        0.0        0.0        0.0       0.00       52.5       1.47       0.26       10.8
17:38             263        0.0         40       23.2      187.8       23.2       23.2        8.9     1010.9       24.1       13.2        0.0        0.0        0.0       0.00       52.7       1.47       0.26       10.8
17:40             266        0.0         40       23.2      187.8       23.2       23.2        8.9     1011.0       24.1       13.2        0.0        0.0        0.0       0.00       52.8       1.47       0.26       10.8
17:42             286        0.0         39       23.2      187.8       23.2       23.1        8.5     1011.2       24.1       13.2        0.0        0.0        0.0       0.00       53.1       1.47       0.26       10.8
17:44             306        0.0         39       23.1      187.8       23.1       23.0        8.4     1011.2       24.1       13.2        0.0        0.0        0.0       0.00       53.2       1.47       0.26       10.8
17:46             309        0.0         40       23.1      187.8       23.1       23.1        8.8     1011.1       24.1       13.2        0.0        0.0        0.0       0.00       53.4       1.47       0.28       10.8
17:48             304        0.0         40       23.2      187.8       23.2       23.1        8.8     1011.0       24.1       13.2        0.0        0.0        0.0       0.00       53.5       1.47       0.28       10.8
17:50             288        0.0         41       23.2      187.8       23.2       23.2        9.2     1011.0       24.1       13.2        0.0        0.0        0.0       0.00       53.7       1.47       0.28       10.8
17:52             262        0.0         41       23.1      187.8       23.1       23.1        9.2     1011.0       24.1       13.2        0.0        0.0        0.0       0.00       53.9       1.47       0.28       10.8
17:53             261        0.0         42       23.1      187.8       23.1       23.2        9.5     1011.0       24.1       13.2        0.0        0.0        0.0       0.00       54.1       1.47       0.28       10.8
17:56             254        0.0         42       23.1      187.8       23.1       23.1        9.5     1011.0       24.1       13.2        0.0        0.0        0.0       0.00       54.3       1.47       0.28       10.8
17:58             300        0.0         43       22.9      187.8       22.9       23.0        9.7     1011.1       24.1       13.2        0.0        0.0        0.0       0.00       54.5       1.47       0.28       10.8
18:00             304        0.0         43       22.9      187.8       22.9       23.0        9.7     1011.2       24.1       13.2        0.0        0.0        0.0       0.00       54.6       1.47       0.28       10.8
18:02             301        0.0         43       22.8      187.8       22.8       22.9        9.6     1011.2       24.1       13.2        0.0        0.0        0.0       0.00       54.7       1.47       0.29       10.8
18:04             300        0.0         44       22.7      187.8       22.7       22.8        9.8     1011.2       24.1       13.2        0.0        0.0        0.0       0.00       54.9       1.47       0.29       10.8
18:06             303        0.0         44       22.5      187.8       22.5       22.6        9.7     1011.3       24.1       13.2        0.0        0.0        0.0       0.00       55.0       1.47       0.29       10.8
18:08             275        0.0         44       22.3      187.8       22.3       22.5        9.5     1011.3       24.1       13.2        0.0        0.0        0.0       0.00       55.2       1.47       0.29       10.8
18:10             284        0.0         44       22.2      187.8       22.2       22.3        9.3     1011.4       24.1       13.2        0.0        0.0        0.0       0.00       55.4       1.47       0.29       10.8
18:12             291        0.0         44       22.1      187.8       22.1       22.2        9.2     1011.3       24.1       13.2        0.0        0.0        0.0       0.00       55.6       1.47       0.29       10.8
18:14             304        0.0         44       21.9      187.8       21.9       22.0        9.1     1011.4       24.1       13.2        0.0        0.0        0.0       0.00       55.8       1.47       0.29       10.8
18:16             308        0.0         45       21.8      187.8       21.8       22.0        9.4     1011.4       24.1       13.2        0.0        0.0        0.0       0.00       55.9       1.47       0.29       10.8
18:18             308        0.0         45       21.8      187.8       21.8       22.0        9.3     1011.3       24.1       13.2        0.0        0.0        0.0       0.00       56.0       1.47       0.29       10.8
18:20             277        0.0         45       21.8      187.8       21.8       22.0        9.3     1011.3       24.1       13.2        0.0        0.0        0.0       0.00       56.2       1.47       0.29       10.8
18:22             276        0.0         46       21.7      187.8       21.7       22.0        9.6     1011.3       24.1       13.2        0.0        0.0        0.0       0.00       56.3       1.47       0.29       10.8
18:24             276        0.0         46       21.7      187.8       21.7       22.0        9.6     1011.3       24.1       13.2        0.0        0.0        0.0       0.00       56.4       1.47       0.29       10.8
18:25             279        0.0         46       21.7      187.8       21.7       21.9        9.6     1011.4       24.1       13.2        0.0        0.0        0.0       0.00       56.5       1.47       0.29       10.8
18:28             288        0.0         46       21.6      187.8       21.6       21.9        9.5     1011.3       24.1       13.2        0.0        0.0        0.0       0.00       56.7       1.47       0.29       10.8
18:30             288        0.0         46       21.6      187.8       21.6       21.8        9.5     1011.3       24.1       13.2        0.0        0.0        0.0       0.00       56.8       1.47       0.29       10.8
18:32             281        0.0         46       21.6      187.8       21.6       21.8        9.5     1011.4       24.1       13.2        0.0        0.0        0.0       0.00       56.9       1.47       0.29       10.8
18:34             265        0.0         47       21.6      187.8       21.6       21.8        9.8     1011.4       24.1       13.2        0.0        0.0        0.0       0.00       57.1       1.47       0.29       10.8
18:36             258        0.0         54       21.5      187.8       21.5       22.2       11.8     1011.4       24.1       13.2        0.0        0.0        0.0       0.00       57.4       1.47       0.29       10.8
18:38             246        0.0         56       21.3      187.8       21.3       22.1       12.2     1011.5       24.1       13.2        0.0        0.0        0.0       0.00       57.7       1.47       0.29       10.8
18:40             245        0.0         58       21.1      187.8       21.1       22.0       12.5     1011.4       24.1       13.2        0.0        0.0        0.0       0.00       57.9       1.47       0.29       10.8
18:42             251        0.0         59       20.9      187.8       20.9       21.8       12.6     1011.4       24.1       13.2        0.0        0.0        0.0       0.00       58.4       1.47       0.29       10.8
18:44             266        0.0         60       20.7      187.8       20.7       21.7       12.7     1011.4       24.1       13.2        0.0        0.0        0.0       0.00       58.6       1.47       0.29       10.8
18:46             259        0.0         60       20.6      187.8       20.6       21.6       12.5     1011.3       24.1       13.2        0.0        0.0        0.0       0.00       58.9       1.47       0.29       10.8
18:48             259        0.0         60       20.4      187.8       20.4       21.4       12.4     1011.3       24.1       13.2        0.0        0.0        0.0       0.00       59.1       1.47       0.29       10.8
18:50             243        0.0         61       20.3      187.8       20.3       21.4       12.6     1011.3       24.1       13.2        0.0        0.0        0.0       0.00       59.4       1.47       0.29       10.8
18:52             242        0.0         61       20.2      187.8       20.2       21.3       12.5     1011.3       24.1       13.2        0.0        0.0        0.0       0.00       59.6       1.47       0.29       10.8
18:54             242        0.0         61       20.2      187.8       20.2       21.2       12.4     1011.3       24.1       13.2        0.0        0.0        0.0       0.00       59.8       1.47       0.29       10.8
18:56             268        0.0         62       20.1      187.8       20.1       21.2       12.6     1011.4       24.1       13.2        0.0        0.0        0.0       0.00       60.0       1.47       0.29       10.8
18:58             242        0.0         62       20.0      187.8       20.0       21.1       12.5     1011.4       24.1       13.2        0.0        0.0        0.0       0.00       60.2       1.47       0.29       10.8
19:00             254        0.0         63       19.9      187.8       19.9       21.1       12.7     1011.4       24.1       13.2        0.0        0.0        0.0       0.00       60.3       1.47       0.29       10.8
19:02             248        0.0         63       19.9      187.8       19.9       21.1       12.6     1011.3       24.1       13.2        0.0        0.0        0.0       0.00       60.5       1.47       0.29       10.8
19:04             258        0.0         63       19.8      187.8       19.8       21.0       12.6     1011.3       24.1       13.2        0.0        0.0        0.0       0.00       60.8       1.47       0.29       10.8
19:06             247        0.0         63       19.8      187.8       19.8       21.0       12.5     1011.3       24.1       13.2        0.0        0.0        0.0       0.00       61.0       1.47       0.29       10.8
19:08             242        0.0         64       19.7      187.8       19.7       21.0       12.7     1011.4       24.1       13.2        0.0        0.0        0.0       0.00       61.2       1.47       0.29       10.8
19:10             251        0.0         64       19.7      187.8       19.7       20.9       12.7     1011.4       24.1       13.2        0.0        0.0        0.0       0.00       61.4       1.47       0.29       10.8
19:12             259        0.0         64       19.6      187.8       19.6       20.9       12.6     1011.4       24.1       13.2        0.0        0.0        0.0       0.00       61.6       1.47       0.29       10.8
19:14             256        0.0         64       19.6      187.8       19.6       20.8       12.6     1011.4       24.1       13.2        0.0        0.0        0.0       0.00       61.7       1.47       0.29       10.8
19:16             239        0.0         65       19.5      187.8       19.5       20.8       12.8     1011.3       24.1       13.2        0.0        0.0        0.0       0.00       61.9       1.47       0.29       10.8
19:18             246        0.0         65       19.4      187.8       19.4       20.7       12.6     1011.4       24.1       13.2        0.0        0.0        0.0       0.00       62.1       1.47       0.29       10.8
19:20             242        0.0         65       19.3      187.8       19.3       20.6       12.6     1011.4       24.1       13.2        0.0        0.0        0.0       0.00       62.2       1.47       0.29       10.8
19:22             248        0.0         65       19.3      187.8       19.3       20.6       12.6     1011.4       24.1       13.2        0.0        0.0        0.0       0.00       62.3       1.47       0.29       10.8
19:24             237        0.0         65       19.3      187.8       19.3       20.6       12.5     1011.5       24.1       13.2        0.0        0.0        0.0       0.00       62.5       1.47       0.29       10.8
19:26             252        0.0         65       19.2      187.8       19.2       20.5       12.4     1011.4       24.1       13.2        0.0        0.0        0.0       0.00       62.6       1.47       0.29       10.8
19:28             246        0.0         65       19.1      187.8       19.1       20.4       12.4     1011.4       24.1       13.2        0.0        0.0        0.0       0.00       62.8       1.47       0.29       10.8
19:30             254        0.0         66       19.1      187.8       19.1       20.4       12.6     1011.4       24.1       13.2        0.0        0.0        0.0       0.00       63.0       1.47       0.29       10.8
19:32             261        0.0         66       19.0      187.8       19.0       20.4       12.5     1011.5       24.1       13.2        0.0        0.0        0.0       0.00       63.2       1.47       0.29       10.8
19:34             260        0.0         66       18.9      187.8       18.9       20.3       12.4     1011.6       24.1       13.2        0.0        0.0        0.0       0.00       63.4       1.47       0.29       10.8
19:36             242        0.0         66       18.8      187.8       18.8       20.2       12.4     1011.7       24.1       13.2        0.0        0.0        0.0       0.00       63.6       1.47       0.29       10.8
19:38             256        0.0         66       18.8      187.8       18.8       20.2       12.4     1011.8       24.1       13.2        0.0        0.0        0.0       0.00       63.7       1.47       0.29       10.8
19:40             246        0.0         66       18.8      187.8       18.8       20.2       12.3     1011.7       24.1       13.2        0.0        0.0        0.0       0.00       63.9       1.47       0.29       10.8
19:42             256        0.0         66       18.7      187.8       18.7       20.1       12.2     1011.8       24.1       13.2        0.0        0.0        0.0       0.00       64.0       1.47       0.29       10.8
19:44             253        0.0         66       18.7      187.8       18.7       20.0       12.2     1011.8       24.1       13.2        0.0        0.0        0.0       0.00       64.2       1.47       0.29       10.8
19:46             263        0.0         66       18.6      187.8       18.6       20.0       12.1     1011.8       24.1       13.2        0.0        0.0        0.0       0.00       64.3       1.47       0.29       10.8
19:48             246        0.0         66       18.6      187.8       18.6       19.9       12.1     1011.8       24.1       13.2        0.0        0.0        0.0       0.00       64.5       1.47       0.29       10.8
19:50             253        0.0         66       18.5      187.8       18.5       19.9       12.0     1011.8       24.1       13.2        0.0        0.0        0.0       0.00       64.6       1.47       0.29       10.8
19:52             250        0.0         66       18.5      187.8       18.5       19.9       12.0     1011.8       24.1       13.2        0.0        0.0        0.0       0.00       64.8       1.47       0.29       10.8
19:54             251        0.0         66       18.4      187.8       18.4       19.8       11.9     1011.9       24.1       13.2        0.0        0.0        0.0       0.00       64.9       1.47       0.29       10.8
19:56             252        0.0         67       18.4      187.8       18.4       19.8       12.2     1011.9       24.1       13.2        0.0        0.0        0.0       0.00       65.0       1.47       0.29       10.8
19:58             250        0.0         67       18.3      187.8       18.3       19.8       12.1     1011.9       24.1       13.2        0.0        0.0        0.0       0.00       65.2       1.47       0.29       10.8
20:00             252        0.0         67       18.2      187.8       18.2       19.7       12.0     1011.9       24.1       13.2        0.0        0.0        0.0       0.00       65.3       1.47       0.29       10.8
20:02             254        0.0         67       18.2      187.8       18.2       19.7       12.0     1011.8       24.1       13.2        0.0        0.0        0.0       0.00       65.4       1.47       0.29       10.8
20:04             253        0.0         67       18.1      187.8       18.1       19.6       11.9     1012.0       24.1       13.2        0.0        0.0        0.0       0.00       65.5       1.47       0.29       10.8
20:06             259        0.0         67       18.1      187.8       18.1       19.6       11.9     1011.9       24.1       13.2        0.0        0.0        0.0       0.00       65.7       1.47       0.29       10.8
20:08             257        0.0         68       18.1      187.8       18.1       19.6       12.1     1011.9       24.1       13.2        0.0        0.0        0.0       0.00       65.9       1.47       0.29       10.8
20:10             254        0.0         68       18.0      187.8       18.0       19.5       12.0     1012.0       24.1       13.2        0.0        0.0        0.0       0.00       66.0       1.47       0.29       10.8
20:12             250        0.0         68       18.0      187.8       18.0       19.5       12.0     1012.0       24.1       13.2        0.0        0.0        0.0       0.00       66.1       1.47       0.29       10.8
20:14             250        0.0         68       17.9      187.8       17.9       19.5       12.0     1011.9       24.1       13.2        0.0        0.0        0.0       0.00       66.3       1.47       0.29       10.8
20:16             248        0.0         68       17.9      187.8       17.9       19.4       11.9     1011.9       24.1       13.2        0.0        0.0        0.0       0.00       66.4       1.47       0.29       10.8
20:18             253        0.0         69       17.9      187.8       17.9       19.5       12.1     1011.9       24.1       13.2        0.0        0.0        0.0       0.00       66.5       1.47       0.29       10.8
20:20             256        0.0         69       17.8      187.8       17.8       19.4       12.1     1012.0       24.1       13.2        0.0        0.0        0.0       0.00       66.7       1.47       0.29       10.8
20:21             256        0.0         69       17.8      187.8       17.8       19.4       12.1     1012.0       24.1       13.2        0.0        0.0        0.0       0.00       66.8       1.47       0.29       10.8
20:24             256        0.0         69       17.8      187.8       17.8       19.4       12.0     1012.0       24.1       13.2        0.0        0.0        0.0       0.00       66.9       1.47       0.29       10.8
20:26             254        0.0         69       17.8      187.8       17.8       19.4       12.0     1012.0       24.1       13.2        0.0        0.0        0.0       0.00       67.2       1.47       0.29       10.8
20:28             261        0.0         69       17.7      187.8       17.7       19.3       12.0     1012.2       24.1       13.2        0.0        0.0        0.0       0.00       67.4       1.47       0.29       10.8
20:30             252        0.0         70       17.7      187.8       17.7       19.3       12.1     1012.2       24.1       13.2        0.0        0.0        0.0       0.00       67.5       1.47       0.29       10.8
20:32             252        0.0         70       17.7      187.8       17.7       19.3       12.1     1012.2       24.1       13.2        0.0        0.0        0.0       0.00       67.7       1.47       0.29       10.8
20:34             259        0.0         70       17.6      187.8       17.6       19.3       12.1     1012.3       24.1       13.2        0.0        0.0        0.0       0.00       67.9       1.47       0.29       10.8
20:36             260        0.0         70       17.6      187.8       17.6       19.3       12.1     1012.4       24.1       13.2        0.0        0.0        0.0       0.00       68.1       1.47       0.29       10.8
20:38             252        0.0         70       17.6      187.8       17.6       19.3       12.1     1012.4       24.1       13.2        0.0        0.0        0.0       0.00       68.3       1.47       0.29       10.8
20:40             252        0.0         70       17.6      187.8       17.6       19.3       12.1     1012.5       24.1       13.2        0.0        0.0        0.0       0.00       68.5       1.47       0.29       10.8
20:42             250        0.0         70       17.6      187.8       17.6       19.3       12.1     1012.5       24.1       13.2        0.0        0.0        0.0       0.00       68.7       1.47       0.29       10.8
20:44             267        0.0         70       17.6      187.8       17.6       19.3       12.1     1012.5       24.1       13.2        0.0        0.0        0.0       0.00       69.0       1.47       0.29       10.8
20:46             268        0.0         70       17.6      187.8       17.6       19.3       12.1     1012.5       24.1       13.2        0.0        0.0        0.0       0.00       69.2       1.47       0.29       10.8
20:48             261        0.0         71       17.6      187.8       17.6       19.3       12.3     1012.5       24.1       13.2        0.0        0.0        0.0       0.00       69.5       1.47       0.29       10.8
20:50             265        0.0         71       17.6      187.8       17.6       19.3       12.3     1012.6       24.1       13.2        0.0        0.0        0.0       0.00       69.7       1.47       0.29       10.8
20:52             252        0.0         71       17.6      187.8       17.6       19.3       12.3     1012.5       24.1       13.2        0.0        0.0        0.0       0.00       70.0       1.47       0.29       10.8
20:54             252        0.0         71       17.6      187.8       17.6       19.3       12.3     1012.5       24.1       13.2        0.0        0.0        0.0       0.00       70.2       1.47       0.29       10.8
20:55             252        0.0         71       17.6      187.8       17.6       19.3       12.3     1012.6       24.1       13.2        0.0        0.0        0.0       0.00       70.4       1.47       0.29       10.8
20:58             271        0.0         71       17.6      187.8       17.6       19.3       12.3     1012.5       24.1       13.2        0.0        0.0        0.0       0.00       70.6       1.47       0.29       10.8
21:00             271        0.0         71       17.6      187.8       17.6       19.3       12.3     1012.6       24.1       13.2        0.0        0.0        0.0       0.00       71.0       1.47       0.29       10.8
21:02             259        0.0         71       17.6      187.8       17.6       19.3       12.3     1012.6       24.1       13.2        0.0        0.0        0.0       0.00       71.3       1.48       0.29       10.8
21:04             265        0.0         71       17.6      187.8       17.6       19.3       12.3     1012.4       24.1       13.2        0.0        0.0        0.0       0.00       71.7       1.48       0.29       10.8
21:06             265        0.0         71       17.6      187.8       17.6       19.3       12.3     1012.5       24.1       13.2        0.0        0.0        0.0       0.00       72.0       1.48       0.29       10.8
21:08             267        0.0         71       17.6      187.8       17.6       19.3       12.2     1012.4       24.1       13.2        0.0        0.0        0.0       0.00       72.3       1.48       0.29       10.8
21:10             266        0.0         71       17.6      187.8       17.6       19.3       12.2     1012.4       24.1       13.2        0.0        0.0        0.0       0.00       72.5       1.48       0.29       10.8
21:12             267        0.0         71       17.6      187.8       17.6       19.3       12.2     1012.4       24.1       13.2        0.0        0.0        0.0       0.00       72.7       1.48       0.29       10.8
21:14             269        0.0         71       17.5      187.8       17.5       19.2       12.2     1012.5       24.1       13.2        0.0        0.0        0.0       0.00       73.0       1.48       0.29       10.8
21:16             269        0.0         71       17.5      187.8       17.5       19.2       12.2     1012.5       24.1       13.2        0.0        0.0        0.0       0.00       73.2       1.48       0.29       10.8
21:18             269        0.0         71       17.5      187.8       17.5       19.2       12.2     1012.5       24.1       13.2        0.0        0.0        0.0       0.00       73.4       1.48       0.29       10.8
21:20             272        0.0         71       17.5      187.8       17.5       19.2       12.2     1012.6       24.1       13.2        0.0        0.0        0.0       0.00       73.7       1.48       0.29       10.8
21:22             272        0.0         71       17.5      187.8       17.5       19.2       12.2     1012.6       24.1       13.2        0.0        0.0        0.0       0.00       73.9       1.48       0.29       10.8
21:24             271        0.0         71       17.5      187.8       17.5       19.2       12.2     1012.6       24.1       13.2        0.0        0.0        0.0       0.00       74.2       1.48       0.29       10.8
21:26             270        0.0         71       17.4      187.8       17.4       19.2       12.1     1012.5       24.1       13.2        0.0        0.0        0.0       0.00       74.4       1.48       0.29       10.8
21:28             270        0.0         71       17.4      187.8       17.4       19.2       12.1     1012.4       24.1       13.2        0.0        0.0        0.0       0.00       74.7       1.48       0.29       10.8
21:30             269        0.0         71       17.4      187.8       17.4       19.1       12.1     1012.4       24.1       13.2        0.0        0.0        0.0       0.00       75.0       1.48       0.29       10.8